<?xml version="1.0" encoding="UTF-8" standalone="no" ?>
<gpx xmlns="http://www.topografix.com/GPX/1/1" xmlns:xsi="http://www.w3.org/2001/XMLSchema-instance" xsi:schemaLocation="http://www.topografix.com/GPX/1/1 http://www.topografix.com/GPX/1/1/gpx.xsd" version="1.1" creator="VisuGPX - https://www.visugpx.com">
  <metadata>
    <name>Marche nordique du 24/11/2012</name>
    <desc><![CDATA[Avec le groupe de 8h à 10h]]></desc>
  </metadata>
  <trk>
    <name><![CDATA[24/11/12 08:00]]></name>
    <desc><![CDATA[]]></desc>
    <trkseg>
      <trkpt lat="47.31856" lon="4.92676">
        <ele>310</ele>
        <time>2012-11-24T07:03:53Z</time>
      </trkpt>
      <trkpt lat="47.31856" lon="4.92666">
        <ele>293</ele>
        <time>2012-11-24T07:04:55Z</time>
      </trkpt>
      <trkpt lat="47.31854" lon="4.92658">
        <ele>295</ele>
        <time>2012-11-24T07:06:06Z</time>
      </trkpt>
      <trkpt lat="47.31856" lon="4.92665">
        <ele>301</ele>
        <time>2012-11-24T07:08:11Z</time>
      </trkpt>
      <trkpt lat="47.31861" lon="4.92677">
        <ele>310</ele>
        <time>2012-11-24T07:09:52Z</time>
      </trkpt>
      <trkpt lat="47.31861" lon="4.92677">
        <ele>310</ele>
        <time>2012-11-24T07:09:52Z</time>
      </trkpt>
      <trkpt lat="47.31861" lon="4.92677">
        <ele>311</ele>
        <time>2012-11-24T07:10:01Z</time>
      </trkpt>
      <trkpt lat="47.31865" lon="4.92672">
        <ele>312</ele>
        <time>2012-11-24T07:11:03Z</time>
      </trkpt>
      <trkpt lat="47.31865" lon="4.92672">
        <ele>312</ele>
        <time>2012-11-24T07:11:03Z</time>
      </trkpt>
      <trkpt lat="47.31865" lon="4.92672">
        <ele>312</ele>
        <time>2012-11-24T07:11:06Z</time>
      </trkpt>
      <trkpt lat="47.31863" lon="4.92679">
        <ele>318</ele>
        <time>2012-11-24T07:11:46Z</time>
      </trkpt>
      <trkpt lat="47.31863" lon="4.92679">
        <ele>318</ele>
        <time>2012-11-24T07:11:46Z</time>
      </trkpt>
      <trkpt lat="47.31863" lon="4.92679">
        <ele>312</ele>
        <time>2012-11-24T07:12:48Z</time>
      </trkpt>
      <trkpt lat="47.31862" lon="4.92671">
        <ele>312</ele>
        <time>2012-11-24T07:13:11Z</time>
      </trkpt>
      <trkpt lat="47.31856" lon="4.9267">
        <ele>316</ele>
        <time>2012-11-24T07:13:23Z</time>
      </trkpt>
      <trkpt lat="47.31852" lon="4.92672">
        <ele>323</ele>
        <time>2012-11-24T07:13:34Z</time>
      </trkpt>
      <trkpt lat="47.31849" lon="4.92677">
        <ele>332</ele>
        <time>2012-11-24T07:13:46Z</time>
      </trkpt>
      <trkpt lat="47.3185" lon="4.92684">
        <ele>337</ele>
        <time>2012-11-24T07:13:59Z</time>
      </trkpt>
      <trkpt lat="47.3185" lon="4.92691">
        <ele>338</ele>
        <time>2012-11-24T07:14:04Z</time>
      </trkpt>
      <trkpt lat="47.31852" lon="4.927">
        <ele>341</ele>
        <time>2012-11-24T07:14:08Z</time>
      </trkpt>
      <trkpt lat="47.31853" lon="4.92707">
        <ele>343</ele>
        <time>2012-11-24T07:14:11Z</time>
      </trkpt>
      <trkpt lat="47.31854" lon="4.92715">
        <ele>345</ele>
        <time>2012-11-24T07:14:19Z</time>
      </trkpt>
      <trkpt lat="47.31854" lon="4.92715">
        <ele>345</ele>
        <time>2012-11-24T07:14:19Z</time>
      </trkpt>
      <trkpt lat="47.31854" lon="4.92715">
        <ele>345</ele>
        <time>2012-11-24T07:14:21Z</time>
      </trkpt>
      <trkpt lat="47.31854" lon="4.92723">
        <ele>344</ele>
        <time>2012-11-24T07:14:27Z</time>
      </trkpt>
      <trkpt lat="47.31856" lon="4.92733">
        <ele>346</ele>
        <time>2012-11-24T07:14:32Z</time>
      </trkpt>
      <trkpt lat="47.31857" lon="4.92741">
        <ele>346</ele>
        <time>2012-11-24T07:14:36Z</time>
      </trkpt>
      <trkpt lat="47.31858" lon="4.92748">
        <ele>347</ele>
        <time>2012-11-24T07:14:41Z</time>
      </trkpt>
      <trkpt lat="47.31858" lon="4.92758">
        <ele>347</ele>
        <time>2012-11-24T07:14:45Z</time>
      </trkpt>
      <trkpt lat="47.31859" lon="4.92765">
        <ele>348</ele>
        <time>2012-11-24T07:14:49Z</time>
      </trkpt>
      <trkpt lat="47.3186" lon="4.92775">
        <ele>349</ele>
        <time>2012-11-24T07:14:58Z</time>
      </trkpt>
      <trkpt lat="47.31861" lon="4.92783">
        <ele>349</ele>
        <time>2012-11-24T07:15:00Z</time>
      </trkpt>
      <trkpt lat="47.31863" lon="4.92791">
        <ele>350</ele>
        <time>2012-11-24T07:15:02Z</time>
      </trkpt>
      <trkpt lat="47.31866" lon="4.92797">
        <ele>352</ele>
        <time>2012-11-24T07:15:04Z</time>
      </trkpt>
      <trkpt lat="47.31869" lon="4.92802">
        <ele>353</ele>
        <time>2012-11-24T07:15:06Z</time>
      </trkpt>
      <trkpt lat="47.3187" lon="4.9281">
        <ele>352</ele>
        <time>2012-11-24T07:15:09Z</time>
      </trkpt>
      <trkpt lat="47.31873" lon="4.92818">
        <ele>352</ele>
        <time>2012-11-24T07:15:14Z</time>
      </trkpt>
      <trkpt lat="47.31876" lon="4.92828">
        <ele>353</ele>
        <time>2012-11-24T07:15:19Z</time>
      </trkpt>
      <trkpt lat="47.31879" lon="4.92836">
        <ele>352</ele>
        <time>2012-11-24T07:15:21Z</time>
      </trkpt>
      <trkpt lat="47.31879" lon="4.92836">
        <ele>352</ele>
        <time>2012-11-24T07:15:21Z</time>
      </trkpt>
      <trkpt lat="47.31879" lon="4.92836">
        <ele>352</ele>
        <time>2012-11-24T07:15:22Z</time>
      </trkpt>
      <trkpt lat="47.31881" lon="4.92842">
        <ele>354</ele>
        <time>2012-11-24T07:15:24Z</time>
      </trkpt>
      <trkpt lat="47.31882" lon="4.92851">
        <ele>355</ele>
        <time>2012-11-24T07:15:27Z</time>
      </trkpt>
      <trkpt lat="47.31883" lon="4.92858">
        <ele>356</ele>
        <time>2012-11-24T07:15:31Z</time>
      </trkpt>
      <trkpt lat="47.31884" lon="4.92866">
        <ele>356</ele>
        <time>2012-11-24T07:15:33Z</time>
      </trkpt>
      <trkpt lat="47.31887" lon="4.92872">
        <ele>356</ele>
        <time>2012-11-24T07:15:36Z</time>
      </trkpt>
      <trkpt lat="47.31888" lon="4.92878">
        <ele>356</ele>
        <time>2012-11-24T07:15:41Z</time>
      </trkpt>
      <trkpt lat="47.31889" lon="4.92885">
        <ele>356</ele>
        <time>2012-11-24T07:15:45Z</time>
      </trkpt>
      <trkpt lat="47.31891" lon="4.92891">
        <ele>354</ele>
        <time>2012-11-24T07:15:52Z</time>
      </trkpt>
      <trkpt lat="47.31895" lon="4.92899">
        <ele>354</ele>
        <time>2012-11-24T07:15:58Z</time>
      </trkpt>
      <trkpt lat="47.31897" lon="4.92905">
        <ele>354</ele>
        <time>2012-11-24T07:16:02Z</time>
      </trkpt>
      <trkpt lat="47.31901" lon="4.92911">
        <ele>357</ele>
        <time>2012-11-24T07:16:04Z</time>
      </trkpt>
      <trkpt lat="47.31904" lon="4.92917">
        <ele>358</ele>
        <time>2012-11-24T07:16:06Z</time>
      </trkpt>
      <trkpt lat="47.31906" lon="4.92925">
        <ele>358</ele>
        <time>2012-11-24T07:16:13Z</time>
      </trkpt>
      <trkpt lat="47.31909" lon="4.9293">
        <ele>357</ele>
        <time>2012-11-24T07:16:15Z</time>
      </trkpt>
      <trkpt lat="47.31914" lon="4.92934">
        <ele>357</ele>
        <time>2012-11-24T07:16:17Z</time>
      </trkpt>
      <trkpt lat="47.31918" lon="4.92936">
        <ele>358</ele>
        <time>2012-11-24T07:16:19Z</time>
      </trkpt>
      <trkpt lat="47.31922" lon="4.9294">
        <ele>359</ele>
        <time>2012-11-24T07:16:22Z</time>
      </trkpt>
      <trkpt lat="47.31928" lon="4.92943">
        <ele>358</ele>
        <time>2012-11-24T07:16:25Z</time>
      </trkpt>
      <trkpt lat="47.31932" lon="4.92946">
        <ele>358</ele>
        <time>2012-11-24T07:16:29Z</time>
      </trkpt>
      <trkpt lat="47.31938" lon="4.92951">
        <ele>359</ele>
        <time>2012-11-24T07:16:33Z</time>
      </trkpt>
      <trkpt lat="47.31942" lon="4.92954">
        <ele>359</ele>
        <time>2012-11-24T07:16:36Z</time>
      </trkpt>
      <trkpt lat="47.31947" lon="4.92959">
        <ele>358</ele>
        <time>2012-11-24T07:16:39Z</time>
      </trkpt>
      <trkpt lat="47.3195" lon="4.92964">
        <ele>358</ele>
        <time>2012-11-24T07:16:42Z</time>
      </trkpt>
      <trkpt lat="47.31953" lon="4.9297">
        <ele>357</ele>
        <time>2012-11-24T07:16:45Z</time>
      </trkpt>
      <trkpt lat="47.31956" lon="4.92977">
        <ele>356</ele>
        <time>2012-11-24T07:16:50Z</time>
      </trkpt>
      <trkpt lat="47.31959" lon="4.92984">
        <ele>355</ele>
        <time>2012-11-24T07:16:52Z</time>
      </trkpt>
      <trkpt lat="47.31962" lon="4.9299">
        <ele>355</ele>
        <time>2012-11-24T07:17:00Z</time>
      </trkpt>
      <trkpt lat="47.31966" lon="4.92996">
        <ele>356</ele>
        <time>2012-11-24T07:17:04Z</time>
      </trkpt>
      <trkpt lat="47.31971" lon="4.93">
        <ele>355</ele>
        <time>2012-11-24T07:17:07Z</time>
      </trkpt>
      <trkpt lat="47.31976" lon="4.93003">
        <ele>355</ele>
        <time>2012-11-24T07:17:11Z</time>
      </trkpt>
      <trkpt lat="47.3198" lon="4.93008">
        <ele>356</ele>
        <time>2012-11-24T07:17:15Z</time>
      </trkpt>
      <trkpt lat="47.31984" lon="4.93011">
        <ele>357</ele>
        <time>2012-11-24T07:17:23Z</time>
      </trkpt>
      <trkpt lat="47.31988" lon="4.93014">
        <ele>360</ele>
        <time>2012-11-24T07:17:33Z</time>
      </trkpt>
      <trkpt lat="47.31994" lon="4.93016">
        <ele>358</ele>
        <time>2012-11-24T07:17:37Z</time>
      </trkpt>
      <trkpt lat="47.31998" lon="4.93022">
        <ele>356</ele>
        <time>2012-11-24T07:17:40Z</time>
      </trkpt>
      <trkpt lat="47.32002" lon="4.93029">
        <ele>355</ele>
        <time>2012-11-24T07:17:43Z</time>
      </trkpt>
      <trkpt lat="47.32006" lon="4.93034">
        <ele>353</ele>
        <time>2012-11-24T07:17:45Z</time>
      </trkpt>
      <trkpt lat="47.32009" lon="4.93042">
        <ele>352</ele>
        <time>2012-11-24T07:17:48Z</time>
      </trkpt>
      <trkpt lat="47.32012" lon="4.93048">
        <ele>352</ele>
        <time>2012-11-24T07:17:53Z</time>
      </trkpt>
      <trkpt lat="47.32016" lon="4.93052">
        <ele>353</ele>
        <time>2012-11-24T07:17:57Z</time>
      </trkpt>
      <trkpt lat="47.32022" lon="4.93057">
        <ele>352</ele>
        <time>2012-11-24T07:18:01Z</time>
      </trkpt>
      <trkpt lat="47.32026" lon="4.93064">
        <ele>350</ele>
        <time>2012-11-24T07:18:03Z</time>
      </trkpt>
      <trkpt lat="47.32031" lon="4.93069">
        <ele>350</ele>
        <time>2012-11-24T07:18:07Z</time>
      </trkpt>
      <trkpt lat="47.32035" lon="4.93072">
        <ele>348</ele>
        <time>2012-11-24T07:18:12Z</time>
      </trkpt>
      <trkpt lat="47.32038" lon="4.93076">
        <ele>348</ele>
        <time>2012-11-24T07:18:15Z</time>
      </trkpt>
      <trkpt lat="47.32042" lon="4.93082">
        <ele>347</ele>
        <time>2012-11-24T07:18:18Z</time>
      </trkpt>
      <trkpt lat="47.32046" lon="4.93088">
        <ele>348</ele>
        <time>2012-11-24T07:18:22Z</time>
      </trkpt>
      <trkpt lat="47.32049" lon="4.93095">
        <ele>346</ele>
        <time>2012-11-24T07:18:27Z</time>
      </trkpt>
      <trkpt lat="47.32053" lon="4.931">
        <ele>343</ele>
        <time>2012-11-24T07:18:31Z</time>
      </trkpt>
      <trkpt lat="47.32055" lon="4.93109">
        <ele>342</ele>
        <time>2012-11-24T07:18:33Z</time>
      </trkpt>
      <trkpt lat="47.32058" lon="4.93115">
        <ele>342</ele>
        <time>2012-11-24T07:18:37Z</time>
      </trkpt>
      <trkpt lat="47.32063" lon="4.93117">
        <ele>344</ele>
        <time>2012-11-24T07:18:42Z</time>
      </trkpt>
      <trkpt lat="47.32066" lon="4.93122">
        <ele>344</ele>
        <time>2012-11-24T07:18:46Z</time>
      </trkpt>
      <trkpt lat="47.32071" lon="4.93125">
        <ele>344</ele>
        <time>2012-11-24T07:18:49Z</time>
      </trkpt>
      <trkpt lat="47.32074" lon="4.93132">
        <ele>343</ele>
        <time>2012-11-24T07:18:52Z</time>
      </trkpt>
      <trkpt lat="47.32076" lon="4.93139">
        <ele>344</ele>
        <time>2012-11-24T07:18:55Z</time>
      </trkpt>
      <trkpt lat="47.3208" lon="4.93142">
        <ele>344</ele>
        <time>2012-11-24T07:18:59Z</time>
      </trkpt>
      <trkpt lat="47.32084" lon="4.93148">
        <ele>344</ele>
        <time>2012-11-24T07:19:06Z</time>
      </trkpt>
      <trkpt lat="47.32089" lon="4.93154">
        <ele>344</ele>
        <time>2012-11-24T07:19:10Z</time>
      </trkpt>
      <trkpt lat="47.32094" lon="4.93161">
        <ele>343</ele>
        <time>2012-11-24T07:19:13Z</time>
      </trkpt>
      <trkpt lat="47.32098" lon="4.93164">
        <ele>343</ele>
        <time>2012-11-24T07:19:15Z</time>
      </trkpt>
      <trkpt lat="47.32098" lon="4.93171">
        <ele>339</ele>
        <time>2012-11-24T07:19:18Z</time>
      </trkpt>
      <trkpt lat="47.32102" lon="4.93177">
        <ele>338</ele>
        <time>2012-11-24T07:19:29Z</time>
      </trkpt>
      <trkpt lat="47.32106" lon="4.93182">
        <ele>339</ele>
        <time>2012-11-24T07:19:34Z</time>
      </trkpt>
      <trkpt lat="47.3211" lon="4.93188">
        <ele>338</ele>
        <time>2012-11-24T07:19:45Z</time>
      </trkpt>
      <trkpt lat="47.3211" lon="4.93188">
        <ele>338</ele>
        <time>2012-11-24T07:19:45Z</time>
      </trkpt>
      <trkpt lat="47.3211" lon="4.93188">
        <ele>338</ele>
        <time>2012-11-24T07:19:46Z</time>
      </trkpt>
      <trkpt lat="47.32114" lon="4.93191">
        <ele>339</ele>
        <time>2012-11-24T07:19:55Z</time>
      </trkpt>
      <trkpt lat="47.32117" lon="4.93198">
        <ele>339</ele>
        <time>2012-11-24T07:20:01Z</time>
      </trkpt>
      <trkpt lat="47.32124" lon="4.93204">
        <ele>338</ele>
        <time>2012-11-24T07:20:10Z</time>
      </trkpt>
      <trkpt lat="47.32128" lon="4.93212">
        <ele>340</ele>
        <time>2012-11-24T07:20:12Z</time>
      </trkpt>
      <trkpt lat="47.32132" lon="4.93216">
        <ele>340</ele>
        <time>2012-11-24T07:20:14Z</time>
      </trkpt>
      <trkpt lat="47.32135" lon="4.93221">
        <ele>340</ele>
        <time>2012-11-24T07:20:16Z</time>
      </trkpt>
      <trkpt lat="47.32137" lon="4.93229">
        <ele>339</ele>
        <time>2012-11-24T07:20:21Z</time>
      </trkpt>
      <trkpt lat="47.3214" lon="4.93234">
        <ele>338</ele>
        <time>2012-11-24T07:20:27Z</time>
      </trkpt>
      <trkpt lat="47.32141" lon="4.9324">
        <ele>337</ele>
        <time>2012-11-24T07:20:34Z</time>
      </trkpt>
      <trkpt lat="47.32141" lon="4.93248">
        <ele>336</ele>
        <time>2012-11-24T07:20:37Z</time>
      </trkpt>
      <trkpt lat="47.3214" lon="4.93256">
        <ele>336</ele>
        <time>2012-11-24T07:20:39Z</time>
      </trkpt>
      <trkpt lat="47.32142" lon="4.93263">
        <ele>336</ele>
        <time>2012-11-24T07:20:42Z</time>
      </trkpt>
      <trkpt lat="47.32144" lon="4.9327">
        <ele>337</ele>
        <time>2012-11-24T07:20:45Z</time>
      </trkpt>
      <trkpt lat="47.32152" lon="4.93272">
        <ele>330</ele>
        <time>2012-11-24T07:22:47Z</time>
      </trkpt>
      <trkpt lat="47.32158" lon="4.9327">
        <ele>328</ele>
        <time>2012-11-24T07:22:49Z</time>
      </trkpt>
      <trkpt lat="47.32163" lon="4.93267">
        <ele>326</ele>
        <time>2012-11-24T07:22:52Z</time>
      </trkpt>
      <trkpt lat="47.32168" lon="4.93267">
        <ele>325</ele>
        <time>2012-11-24T07:22:54Z</time>
      </trkpt>
      <trkpt lat="47.32173" lon="4.93264">
        <ele>323</ele>
        <time>2012-11-24T07:22:57Z</time>
      </trkpt>
      <trkpt lat="47.32177" lon="4.93262">
        <ele>323</ele>
        <time>2012-11-24T07:23:00Z</time>
      </trkpt>
      <trkpt lat="47.32183" lon="4.93261">
        <ele>323</ele>
        <time>2012-11-24T07:23:03Z</time>
      </trkpt>
      <trkpt lat="47.32188" lon="4.93262">
        <ele>324</ele>
        <time>2012-11-24T07:23:06Z</time>
      </trkpt>
      <trkpt lat="47.32194" lon="4.93264">
        <ele>321</ele>
        <time>2012-11-24T07:23:09Z</time>
      </trkpt>
      <trkpt lat="47.32202" lon="4.93262">
        <ele>321</ele>
        <time>2012-11-24T07:23:11Z</time>
      </trkpt>
      <trkpt lat="47.32206" lon="4.9326">
        <ele>320</ele>
        <time>2012-11-24T07:23:13Z</time>
      </trkpt>
      <trkpt lat="47.32211" lon="4.93258">
        <ele>324</ele>
        <time>2012-11-24T07:23:19Z</time>
      </trkpt>
      <trkpt lat="47.32216" lon="4.93257">
        <ele>324</ele>
        <time>2012-11-24T07:23:23Z</time>
      </trkpt>
      <trkpt lat="47.3222" lon="4.93259">
        <ele>325</ele>
        <time>2012-11-24T07:23:26Z</time>
      </trkpt>
      <trkpt lat="47.32225" lon="4.93263">
        <ele>326</ele>
        <time>2012-11-24T07:23:28Z</time>
      </trkpt>
      <trkpt lat="47.32227" lon="4.93269">
        <ele>325</ele>
        <time>2012-11-24T07:23:31Z</time>
      </trkpt>
      <trkpt lat="47.3223" lon="4.93275">
        <ele>325</ele>
        <time>2012-11-24T07:23:35Z</time>
      </trkpt>
      <trkpt lat="47.32236" lon="4.93277">
        <ele>327</ele>
        <time>2012-11-24T07:23:40Z</time>
      </trkpt>
      <trkpt lat="47.32242" lon="4.93278">
        <ele>329</ele>
        <time>2012-11-24T07:23:44Z</time>
      </trkpt>
      <trkpt lat="47.32248" lon="4.93278">
        <ele>331</ele>
        <time>2012-11-24T07:23:49Z</time>
      </trkpt>
      <trkpt lat="47.32253" lon="4.93281">
        <ele>330</ele>
        <time>2012-11-24T07:23:53Z</time>
      </trkpt>
      <trkpt lat="47.32258" lon="4.93284">
        <ele>332</ele>
        <time>2012-11-24T07:23:58Z</time>
      </trkpt>
      <trkpt lat="47.32262" lon="4.93288">
        <ele>333</ele>
        <time>2012-11-24T07:24:02Z</time>
      </trkpt>
      <trkpt lat="47.32268" lon="4.93294">
        <ele>333</ele>
        <time>2012-11-24T07:24:06Z</time>
      </trkpt>
      <trkpt lat="47.32274" lon="4.93295">
        <ele>336</ele>
        <time>2012-11-24T07:24:09Z</time>
      </trkpt>
      <trkpt lat="47.32278" lon="4.933">
        <ele>337</ele>
        <time>2012-11-24T07:24:13Z</time>
      </trkpt>
      <trkpt lat="47.32285" lon="4.933">
        <ele>337</ele>
        <time>2012-11-24T07:24:16Z</time>
      </trkpt>
      <trkpt lat="47.32289" lon="4.93303">
        <ele>341</ele>
        <time>2012-11-24T07:24:20Z</time>
      </trkpt>
      <trkpt lat="47.32294" lon="4.93309">
        <ele>341</ele>
        <time>2012-11-24T07:24:24Z</time>
      </trkpt>
      <trkpt lat="47.32299" lon="4.93314">
        <ele>341</ele>
        <time>2012-11-24T07:24:28Z</time>
      </trkpt>
      <trkpt lat="47.32303" lon="4.93319">
        <ele>341</ele>
        <time>2012-11-24T07:24:31Z</time>
      </trkpt>
      <trkpt lat="47.32308" lon="4.93324">
        <ele>341</ele>
        <time>2012-11-24T07:24:34Z</time>
      </trkpt>
      <trkpt lat="47.32313" lon="4.93325">
        <ele>340</ele>
        <time>2012-11-24T07:24:39Z</time>
      </trkpt>
      <trkpt lat="47.32317" lon="4.9333">
        <ele>340</ele>
        <time>2012-11-24T07:24:41Z</time>
      </trkpt>
      <trkpt lat="47.32321" lon="4.93335">
        <ele>339</ele>
        <time>2012-11-24T07:24:43Z</time>
      </trkpt>
      <trkpt lat="47.32326" lon="4.93341">
        <ele>338</ele>
        <time>2012-11-24T07:24:45Z</time>
      </trkpt>
      <trkpt lat="47.32332" lon="4.93345">
        <ele>338</ele>
        <time>2012-11-24T07:24:48Z</time>
      </trkpt>
      <trkpt lat="47.32337" lon="4.93347">
        <ele>338</ele>
        <time>2012-11-24T07:24:50Z</time>
      </trkpt>
      <trkpt lat="47.32342" lon="4.93352">
        <ele>339</ele>
        <time>2012-11-24T07:24:53Z</time>
      </trkpt>
      <trkpt lat="47.32346" lon="4.93355">
        <ele>340</ele>
        <time>2012-11-24T07:24:56Z</time>
      </trkpt>
      <trkpt lat="47.3235" lon="4.93359">
        <ele>343</ele>
        <time>2012-11-24T07:25:01Z</time>
      </trkpt>
      <trkpt lat="47.32355" lon="4.93362">
        <ele>347</ele>
        <time>2012-11-24T07:25:06Z</time>
      </trkpt>
      <trkpt lat="47.3236" lon="4.93364">
        <ele>348</ele>
        <time>2012-11-24T07:25:10Z</time>
      </trkpt>
      <trkpt lat="47.32364" lon="4.93369">
        <ele>348</ele>
        <time>2012-11-24T07:25:13Z</time>
      </trkpt>
      <trkpt lat="47.32368" lon="4.93372">
        <ele>348</ele>
        <time>2012-11-24T07:25:17Z</time>
      </trkpt>
      <trkpt lat="47.32372" lon="4.93376">
        <ele>350</ele>
        <time>2012-11-24T07:25:22Z</time>
      </trkpt>
      <trkpt lat="47.32378" lon="4.93379">
        <ele>352</ele>
        <time>2012-11-24T07:25:28Z</time>
      </trkpt>
      <trkpt lat="47.32382" lon="4.93384">
        <ele>353</ele>
        <time>2012-11-24T07:25:32Z</time>
      </trkpt>
      <trkpt lat="47.32387" lon="4.93388">
        <ele>351</ele>
        <time>2012-11-24T07:25:34Z</time>
      </trkpt>
      <trkpt lat="47.32392" lon="4.93397">
        <ele>350</ele>
        <time>2012-11-24T07:25:36Z</time>
      </trkpt>
      <trkpt lat="47.32395" lon="4.93402">
        <ele>350</ele>
        <time>2012-11-24T07:25:38Z</time>
      </trkpt>
      <trkpt lat="47.324" lon="4.93405">
        <ele>351</ele>
        <time>2012-11-24T07:25:42Z</time>
      </trkpt>
      <trkpt lat="47.32405" lon="4.9341">
        <ele>352</ele>
        <time>2012-11-24T07:25:47Z</time>
      </trkpt>
      <trkpt lat="47.3241" lon="4.93412">
        <ele>353</ele>
        <time>2012-11-24T07:25:50Z</time>
      </trkpt>
      <trkpt lat="47.32414" lon="4.93418">
        <ele>352</ele>
        <time>2012-11-24T07:25:54Z</time>
      </trkpt>
      <trkpt lat="47.32419" lon="4.93421">
        <ele>353</ele>
        <time>2012-11-24T07:25:58Z</time>
      </trkpt>
      <trkpt lat="47.32425" lon="4.93426">
        <ele>355</ele>
        <time>2012-11-24T07:26:02Z</time>
      </trkpt>
      <trkpt lat="47.3243" lon="4.93427">
        <ele>357</ele>
        <time>2012-11-24T07:26:07Z</time>
      </trkpt>
      <trkpt lat="47.32435" lon="4.9343">
        <ele>357</ele>
        <time>2012-11-24T07:26:11Z</time>
      </trkpt>
      <trkpt lat="47.32439" lon="4.93436">
        <ele>359</ele>
        <time>2012-11-24T07:26:14Z</time>
      </trkpt>
      <trkpt lat="47.32442" lon="4.93441">
        <ele>360</ele>
        <time>2012-11-24T07:26:16Z</time>
      </trkpt>
      <trkpt lat="47.32446" lon="4.93447">
        <ele>361</ele>
        <time>2012-11-24T07:26:19Z</time>
      </trkpt>
      <trkpt lat="47.32451" lon="4.93449">
        <ele>363</ele>
        <time>2012-11-24T07:26:22Z</time>
      </trkpt>
      <trkpt lat="47.32455" lon="4.93453">
        <ele>365</ele>
        <time>2012-11-24T07:26:26Z</time>
      </trkpt>
      <trkpt lat="47.3246" lon="4.93456">
        <ele>366</ele>
        <time>2012-11-24T07:26:29Z</time>
      </trkpt>
      <trkpt lat="47.32464" lon="4.9346">
        <ele>367</ele>
        <time>2012-11-24T07:26:32Z</time>
      </trkpt>
      <trkpt lat="47.32468" lon="4.93464">
        <ele>367</ele>
        <time>2012-11-24T07:26:35Z</time>
      </trkpt>
      <trkpt lat="47.32472" lon="4.93466">
        <ele>367</ele>
        <time>2012-11-24T07:26:39Z</time>
      </trkpt>
      <trkpt lat="47.32476" lon="4.93471">
        <ele>366</ele>
        <time>2012-11-24T07:26:43Z</time>
      </trkpt>
      <trkpt lat="47.3248" lon="4.93474">
        <ele>362</ele>
        <time>2012-11-24T07:26:49Z</time>
      </trkpt>
      <trkpt lat="47.32484" lon="4.93476">
        <ele>361</ele>
        <time>2012-11-24T07:26:52Z</time>
      </trkpt>
      <trkpt lat="47.32489" lon="4.93479">
        <ele>362</ele>
        <time>2012-11-24T07:26:55Z</time>
      </trkpt>
      <trkpt lat="47.32494" lon="4.93479">
        <ele>361</ele>
        <time>2012-11-24T07:26:57Z</time>
      </trkpt>
      <trkpt lat="47.32499" lon="4.93482">
        <ele>361</ele>
        <time>2012-11-24T07:27:00Z</time>
      </trkpt>
      <trkpt lat="47.32504" lon="4.93483">
        <ele>361</ele>
        <time>2012-11-24T07:27:03Z</time>
      </trkpt>
      <trkpt lat="47.32512" lon="4.93485">
        <ele>360</ele>
        <time>2012-11-24T07:27:06Z</time>
      </trkpt>
      <trkpt lat="47.32519" lon="4.93488">
        <ele>359</ele>
        <time>2012-11-24T07:27:09Z</time>
      </trkpt>
      <trkpt lat="47.32524" lon="4.93488">
        <ele>358</ele>
        <time>2012-11-24T07:27:13Z</time>
      </trkpt>
      <trkpt lat="47.3253" lon="4.93491">
        <ele>356</ele>
        <time>2012-11-24T07:27:16Z</time>
      </trkpt>
      <trkpt lat="47.32534" lon="4.93495">
        <ele>355</ele>
        <time>2012-11-24T07:27:18Z</time>
      </trkpt>
      <trkpt lat="47.32539" lon="4.93497">
        <ele>352</ele>
        <time>2012-11-24T07:27:23Z</time>
      </trkpt>
      <trkpt lat="47.32544" lon="4.93501">
        <ele>351</ele>
        <time>2012-11-24T07:27:25Z</time>
      </trkpt>
      <trkpt lat="47.32548" lon="4.93507">
        <ele>350</ele>
        <time>2012-11-24T07:27:27Z</time>
      </trkpt>
      <trkpt lat="47.32552" lon="4.9351">
        <ele>350</ele>
        <time>2012-11-24T07:27:29Z</time>
      </trkpt>
      <trkpt lat="47.32554" lon="4.93517">
        <ele>347</ele>
        <time>2012-11-24T07:27:31Z</time>
      </trkpt>
      <trkpt lat="47.32556" lon="4.93524">
        <ele>345</ele>
        <time>2012-11-24T07:27:33Z</time>
      </trkpt>
      <trkpt lat="47.32559" lon="4.9353">
        <ele>343</ele>
        <time>2012-11-24T07:27:35Z</time>
      </trkpt>
      <trkpt lat="47.32562" lon="4.93535">
        <ele>343</ele>
        <time>2012-11-24T07:27:37Z</time>
      </trkpt>
      <trkpt lat="47.32566" lon="4.9354">
        <ele>342</ele>
        <time>2012-11-24T07:27:40Z</time>
      </trkpt>
      <trkpt lat="47.32568" lon="4.93546">
        <ele>340</ele>
        <time>2012-11-24T07:27:44Z</time>
      </trkpt>
      <trkpt lat="47.3257" lon="4.93553">
        <ele>339</ele>
        <time>2012-11-24T07:27:47Z</time>
      </trkpt>
      <trkpt lat="47.32573" lon="4.9356">
        <ele>339</ele>
        <time>2012-11-24T07:27:50Z</time>
      </trkpt>
      <trkpt lat="47.32576" lon="4.93566">
        <ele>339</ele>
        <time>2012-11-24T07:27:53Z</time>
      </trkpt>
      <trkpt lat="47.32581" lon="4.93568">
        <ele>339</ele>
        <time>2012-11-24T07:27:56Z</time>
      </trkpt>
      <trkpt lat="47.32583" lon="4.93574">
        <ele>339</ele>
        <time>2012-11-24T07:27:59Z</time>
      </trkpt>
      <trkpt lat="47.32584" lon="4.93581">
        <ele>339</ele>
        <time>2012-11-24T07:28:02Z</time>
      </trkpt>
      <trkpt lat="47.32588" lon="4.93585">
        <ele>338</ele>
        <time>2012-11-24T07:28:05Z</time>
      </trkpt>
      <trkpt lat="47.32592" lon="4.93592">
        <ele>337</ele>
        <time>2012-11-24T07:28:09Z</time>
      </trkpt>
      <trkpt lat="47.32594" lon="4.93598">
        <ele>337</ele>
        <time>2012-11-24T07:28:11Z</time>
      </trkpt>
      <trkpt lat="47.32599" lon="4.93604">
        <ele>337</ele>
        <time>2012-11-24T07:28:14Z</time>
      </trkpt>
      <trkpt lat="47.32602" lon="4.93612">
        <ele>336</ele>
        <time>2012-11-24T07:28:17Z</time>
      </trkpt>
      <trkpt lat="47.32605" lon="4.93619">
        <ele>337</ele>
        <time>2012-11-24T07:28:20Z</time>
      </trkpt>
      <trkpt lat="47.32608" lon="4.93625">
        <ele>337</ele>
        <time>2012-11-24T07:28:23Z</time>
      </trkpt>
      <trkpt lat="47.32611" lon="4.93634">
        <ele>336</ele>
        <time>2012-11-24T07:28:26Z</time>
      </trkpt>
      <trkpt lat="47.32614" lon="4.9364">
        <ele>335</ele>
        <time>2012-11-24T07:28:28Z</time>
      </trkpt>
      <trkpt lat="47.32619" lon="4.93647">
        <ele>333</ele>
        <time>2012-11-24T07:28:31Z</time>
      </trkpt>
      <trkpt lat="47.32622" lon="4.93653">
        <ele>330</ele>
        <time>2012-11-24T07:28:33Z</time>
      </trkpt>
      <trkpt lat="47.32625" lon="4.93659">
        <ele>330</ele>
        <time>2012-11-24T07:28:36Z</time>
      </trkpt>
      <trkpt lat="47.32625" lon="4.93667">
        <ele>329</ele>
        <time>2012-11-24T07:28:39Z</time>
      </trkpt>
      <trkpt lat="47.32628" lon="4.93674">
        <ele>327</ele>
        <time>2012-11-24T07:28:41Z</time>
      </trkpt>
      <trkpt lat="47.32631" lon="4.93679">
        <ele>327</ele>
        <time>2012-11-24T07:28:44Z</time>
      </trkpt>
      <trkpt lat="47.32634" lon="4.93686">
        <ele>328</ele>
        <time>2012-11-24T07:28:48Z</time>
      </trkpt>
      <trkpt lat="47.32639" lon="4.9369">
        <ele>329</ele>
        <time>2012-11-24T07:28:51Z</time>
      </trkpt>
      <trkpt lat="47.32644" lon="4.93697">
        <ele>330</ele>
        <time>2012-11-24T07:28:55Z</time>
      </trkpt>
      <trkpt lat="47.32646" lon="4.93702">
        <ele>331</ele>
        <time>2012-11-24T07:28:59Z</time>
      </trkpt>
      <trkpt lat="47.32649" lon="4.93708">
        <ele>332</ele>
        <time>2012-11-24T07:29:02Z</time>
      </trkpt>
      <trkpt lat="47.32652" lon="4.93716">
        <ele>332</ele>
        <time>2012-11-24T07:29:05Z</time>
      </trkpt>
      <trkpt lat="47.32656" lon="4.9372">
        <ele>332</ele>
        <time>2012-11-24T07:29:07Z</time>
      </trkpt>
      <trkpt lat="47.32658" lon="4.93726">
        <ele>333</ele>
        <time>2012-11-24T07:29:09Z</time>
      </trkpt>
      <trkpt lat="47.32662" lon="4.93732">
        <ele>333</ele>
        <time>2012-11-24T07:29:13Z</time>
      </trkpt>
      <trkpt lat="47.32666" lon="4.93736">
        <ele>333</ele>
        <time>2012-11-24T07:29:15Z</time>
      </trkpt>
      <trkpt lat="47.32669" lon="4.93744">
        <ele>333</ele>
        <time>2012-11-24T07:29:17Z</time>
      </trkpt>
      <trkpt lat="47.32672" lon="4.9375">
        <ele>333</ele>
        <time>2012-11-24T07:29:19Z</time>
      </trkpt>
      <trkpt lat="47.32677" lon="4.93756">
        <ele>333</ele>
        <time>2012-11-24T07:29:22Z</time>
      </trkpt>
      <trkpt lat="47.32679" lon="4.93765">
        <ele>333</ele>
        <time>2012-11-24T07:29:25Z</time>
      </trkpt>
      <trkpt lat="47.32682" lon="4.93771">
        <ele>333</ele>
        <time>2012-11-24T07:29:28Z</time>
      </trkpt>
      <trkpt lat="47.32685" lon="4.93776">
        <ele>334</ele>
        <time>2012-11-24T07:29:31Z</time>
      </trkpt>
      <trkpt lat="47.32688" lon="4.93782">
        <ele>333</ele>
        <time>2012-11-24T07:29:34Z</time>
      </trkpt>
      <trkpt lat="47.32692" lon="4.9379">
        <ele>334</ele>
        <time>2012-11-24T07:29:38Z</time>
      </trkpt>
      <trkpt lat="47.32696" lon="4.93794">
        <ele>335</ele>
        <time>2012-11-24T07:29:40Z</time>
      </trkpt>
      <trkpt lat="47.32701" lon="4.93799">
        <ele>336</ele>
        <time>2012-11-24T07:29:43Z</time>
      </trkpt>
      <trkpt lat="47.32705" lon="4.93803">
        <ele>337</ele>
        <time>2012-11-24T07:29:46Z</time>
      </trkpt>
      <trkpt lat="47.3271" lon="4.93809">
        <ele>337</ele>
        <time>2012-11-24T07:29:50Z</time>
      </trkpt>
      <trkpt lat="47.32714" lon="4.93815">
        <ele>338</ele>
        <time>2012-11-24T07:29:53Z</time>
      </trkpt>
      <trkpt lat="47.32718" lon="4.93821">
        <ele>338</ele>
        <time>2012-11-24T07:29:56Z</time>
      </trkpt>
      <trkpt lat="47.32721" lon="4.93826">
        <ele>338</ele>
        <time>2012-11-24T07:29:58Z</time>
      </trkpt>
      <trkpt lat="47.32724" lon="4.93831">
        <ele>339</ele>
        <time>2012-11-24T07:30:00Z</time>
      </trkpt>
      <trkpt lat="47.32727" lon="4.93836">
        <ele>339</ele>
        <time>2012-11-24T07:30:02Z</time>
      </trkpt>
      <trkpt lat="47.32732" lon="4.93844">
        <ele>339</ele>
        <time>2012-11-24T07:30:05Z</time>
      </trkpt>
      <trkpt lat="47.32734" lon="4.93852">
        <ele>338</ele>
        <time>2012-11-24T07:30:08Z</time>
      </trkpt>
      <trkpt lat="47.32738" lon="4.93858">
        <ele>338</ele>
        <time>2012-11-24T07:30:11Z</time>
      </trkpt>
      <trkpt lat="47.32741" lon="4.93863">
        <ele>338</ele>
        <time>2012-11-24T07:30:13Z</time>
      </trkpt>
      <trkpt lat="47.32746" lon="4.9387">
        <ele>338</ele>
        <time>2012-11-24T07:30:16Z</time>
      </trkpt>
      <trkpt lat="47.3275" lon="4.93875">
        <ele>339</ele>
        <time>2012-11-24T07:30:20Z</time>
      </trkpt>
      <trkpt lat="47.32754" lon="4.93878">
        <ele>339</ele>
        <time>2012-11-24T07:30:23Z</time>
      </trkpt>
      <trkpt lat="47.32759" lon="4.93884">
        <ele>339</ele>
        <time>2012-11-24T07:30:26Z</time>
      </trkpt>
      <trkpt lat="47.32762" lon="4.93889">
        <ele>340</ele>
        <time>2012-11-24T07:30:28Z</time>
      </trkpt>
      <trkpt lat="47.32766" lon="4.93896">
        <ele>342</ele>
        <time>2012-11-24T07:30:30Z</time>
      </trkpt>
      <trkpt lat="47.32768" lon="4.93903">
        <ele>341</ele>
        <time>2012-11-24T07:30:32Z</time>
      </trkpt>
      <trkpt lat="47.3277" lon="4.93912">
        <ele>340</ele>
        <time>2012-11-24T07:30:35Z</time>
      </trkpt>
      <trkpt lat="47.32773" lon="4.93918">
        <ele>338</ele>
        <time>2012-11-24T07:30:37Z</time>
      </trkpt>
      <trkpt lat="47.32776" lon="4.93924">
        <ele>339</ele>
        <time>2012-11-24T07:30:39Z</time>
      </trkpt>
      <trkpt lat="47.32779" lon="4.9393">
        <ele>339</ele>
        <time>2012-11-24T07:30:41Z</time>
      </trkpt>
      <trkpt lat="47.32782" lon="4.93937">
        <ele>338</ele>
        <time>2012-11-24T07:30:44Z</time>
      </trkpt>
      <trkpt lat="47.32787" lon="4.93943">
        <ele>340</ele>
        <time>2012-11-24T07:30:48Z</time>
      </trkpt>
      <trkpt lat="47.32792" lon="4.93947">
        <ele>342</ele>
        <time>2012-11-24T07:30:51Z</time>
      </trkpt>
      <trkpt lat="47.32795" lon="4.93953">
        <ele>340</ele>
        <time>2012-11-24T07:30:54Z</time>
      </trkpt>
      <trkpt lat="47.32798" lon="4.93959">
        <ele>339</ele>
        <time>2012-11-24T07:30:56Z</time>
      </trkpt>
      <trkpt lat="47.32802" lon="4.93963">
        <ele>339</ele>
        <time>2012-11-24T07:30:59Z</time>
      </trkpt>
      <trkpt lat="47.32807" lon="4.93968">
        <ele>340</ele>
        <time>2012-11-24T07:31:02Z</time>
      </trkpt>
      <trkpt lat="47.32811" lon="4.93976">
        <ele>341</ele>
        <time>2012-11-24T07:31:05Z</time>
      </trkpt>
      <trkpt lat="47.32815" lon="4.93983">
        <ele>339</ele>
        <time>2012-11-24T07:31:08Z</time>
      </trkpt>
      <trkpt lat="47.32816" lon="4.93992">
        <ele>335</ele>
        <time>2012-11-24T07:31:10Z</time>
      </trkpt>
      <trkpt lat="47.32819" lon="4.93997">
        <ele>333</ele>
        <time>2012-11-24T07:31:12Z</time>
      </trkpt>
      <trkpt lat="47.32823" lon="4.94004">
        <ele>331</ele>
        <time>2012-11-24T07:31:15Z</time>
      </trkpt>
      <trkpt lat="47.32826" lon="4.9401">
        <ele>329</ele>
        <time>2012-11-24T07:31:17Z</time>
      </trkpt>
      <trkpt lat="47.3283" lon="4.94015">
        <ele>330</ele>
        <time>2012-11-24T07:31:20Z</time>
      </trkpt>
      <trkpt lat="47.32834" lon="4.94019">
        <ele>332</ele>
        <time>2012-11-24T07:31:23Z</time>
      </trkpt>
      <trkpt lat="47.32837" lon="4.94027">
        <ele>333</ele>
        <time>2012-11-24T07:31:26Z</time>
      </trkpt>
      <trkpt lat="47.3284" lon="4.94033">
        <ele>334</ele>
        <time>2012-11-24T07:31:29Z</time>
      </trkpt>
      <trkpt lat="47.32842" lon="4.94039">
        <ele>335</ele>
        <time>2012-11-24T07:31:32Z</time>
      </trkpt>
      <trkpt lat="47.32845" lon="4.94045">
        <ele>335</ele>
        <time>2012-11-24T07:31:35Z</time>
      </trkpt>
      <trkpt lat="47.32848" lon="4.94051">
        <ele>335</ele>
        <time>2012-11-24T07:31:38Z</time>
      </trkpt>
      <trkpt lat="47.32852" lon="4.94059">
        <ele>334</ele>
        <time>2012-11-24T07:31:41Z</time>
      </trkpt>
      <trkpt lat="47.32856" lon="4.94062">
        <ele>334</ele>
        <time>2012-11-24T07:31:44Z</time>
      </trkpt>
      <trkpt lat="47.32859" lon="4.94067">
        <ele>333</ele>
        <time>2012-11-24T07:31:46Z</time>
      </trkpt>
      <trkpt lat="47.32862" lon="4.94074">
        <ele>331</ele>
        <time>2012-11-24T07:31:49Z</time>
      </trkpt>
      <trkpt lat="47.32866" lon="4.9408">
        <ele>329</ele>
        <time>2012-11-24T07:31:53Z</time>
      </trkpt>
      <trkpt lat="47.32868" lon="4.94088">
        <ele>325</ele>
        <time>2012-11-24T07:31:56Z</time>
      </trkpt>
      <trkpt lat="47.32865" lon="4.94096">
        <ele>322</ele>
        <time>2012-11-24T07:32:01Z</time>
      </trkpt>
      <trkpt lat="47.32861" lon="4.94099">
        <ele>320</ele>
        <time>2012-11-24T07:32:05Z</time>
      </trkpt>
      <trkpt lat="47.32856" lon="4.941">
        <ele>322</ele>
        <time>2012-11-24T07:32:13Z</time>
      </trkpt>
      <trkpt lat="47.32851" lon="4.94102">
        <ele>323</ele>
        <time>2012-11-24T07:32:18Z</time>
      </trkpt>
      <trkpt lat="47.32846" lon="4.94104">
        <ele>323</ele>
        <time>2012-11-24T07:32:22Z</time>
      </trkpt>
      <trkpt lat="47.3284" lon="4.94104">
        <ele>322</ele>
        <time>2012-11-24T07:32:24Z</time>
      </trkpt>
      <trkpt lat="47.32834" lon="4.94102">
        <ele>320</ele>
        <time>2012-11-24T07:32:26Z</time>
      </trkpt>
      <trkpt lat="47.3283" lon="4.94099">
        <ele>320</ele>
        <time>2012-11-24T07:32:28Z</time>
      </trkpt>
      <trkpt lat="47.32826" lon="4.94093">
        <ele>321</ele>
        <time>2012-11-24T07:32:31Z</time>
      </trkpt>
      <trkpt lat="47.32826" lon="4.94084">
        <ele>320</ele>
        <time>2012-11-24T07:32:34Z</time>
      </trkpt>
      <trkpt lat="47.32825" lon="4.94076">
        <ele>319</ele>
        <time>2012-11-24T07:32:36Z</time>
      </trkpt>
      <trkpt lat="47.32826" lon="4.94069">
        <ele>320</ele>
        <time>2012-11-24T07:32:38Z</time>
      </trkpt>
      <trkpt lat="47.32825" lon="4.94062">
        <ele>322</ele>
        <time>2012-11-24T07:32:40Z</time>
      </trkpt>
      <trkpt lat="47.32825" lon="4.94054">
        <ele>324</ele>
        <time>2012-11-24T07:32:44Z</time>
      </trkpt>
      <trkpt lat="47.32828" lon="4.94047">
        <ele>323</ele>
        <time>2012-11-24T07:32:47Z</time>
      </trkpt>
      <trkpt lat="47.3283" lon="4.9404">
        <ele>322</ele>
        <time>2012-11-24T07:32:49Z</time>
      </trkpt>
      <trkpt lat="47.32834" lon="4.94038">
        <ele>322</ele>
        <time>2012-11-24T07:32:53Z</time>
      </trkpt>
      <trkpt lat="47.32838" lon="4.94042">
        <ele>322</ele>
        <time>2012-11-24T07:32:56Z</time>
      </trkpt>
      <trkpt lat="47.32842" lon="4.94048">
        <ele>322</ele>
        <time>2012-11-24T07:32:59Z</time>
      </trkpt>
      <trkpt lat="47.32847" lon="4.94054">
        <ele>322</ele>
        <time>2012-11-24T07:33:02Z</time>
      </trkpt>
      <trkpt lat="47.32852" lon="4.9406">
        <ele>322</ele>
        <time>2012-11-24T07:33:04Z</time>
      </trkpt>
      <trkpt lat="47.32854" lon="4.94066">
        <ele>324</ele>
        <time>2012-11-24T07:33:07Z</time>
      </trkpt>
      <trkpt lat="47.32856" lon="4.94071">
        <ele>324</ele>
        <time>2012-11-24T07:33:10Z</time>
      </trkpt>
      <trkpt lat="47.32859" lon="4.94077">
        <ele>324</ele>
        <time>2012-11-24T07:33:12Z</time>
      </trkpt>
      <trkpt lat="47.32861" lon="4.94085">
        <ele>324</ele>
        <time>2012-11-24T07:33:15Z</time>
      </trkpt>
      <trkpt lat="47.32863" lon="4.94093">
        <ele>324</ele>
        <time>2012-11-24T07:33:18Z</time>
      </trkpt>
      <trkpt lat="47.32866" lon="4.94099">
        <ele>325</ele>
        <time>2012-11-24T07:33:21Z</time>
      </trkpt>
      <trkpt lat="47.32868" lon="4.94106">
        <ele>326</ele>
        <time>2012-11-24T07:33:37Z</time>
      </trkpt>
      <trkpt lat="47.32871" lon="4.94112">
        <ele>326</ele>
        <time>2012-11-24T07:33:44Z</time>
      </trkpt>
      <trkpt lat="47.32871" lon="4.94112">
        <ele>326</ele>
        <time>2012-11-24T07:33:44Z</time>
      </trkpt>
      <trkpt lat="47.32871" lon="4.94112">
        <ele>325</ele>
        <time>2012-11-24T07:33:45Z</time>
      </trkpt>
      <trkpt lat="47.32872" lon="4.94119">
        <ele>326</ele>
        <time>2012-11-24T07:35:29Z</time>
      </trkpt>
      <trkpt lat="47.32872" lon="4.94126">
        <ele>326</ele>
        <time>2012-11-24T07:35:33Z</time>
      </trkpt>
      <trkpt lat="47.3287" lon="4.94135">
        <ele>326</ele>
        <time>2012-11-24T07:35:38Z</time>
      </trkpt>
      <trkpt lat="47.32872" lon="4.94141">
        <ele>326</ele>
        <time>2012-11-24T07:35:41Z</time>
      </trkpt>
      <trkpt lat="47.32874" lon="4.9415">
        <ele>327</ele>
        <time>2012-11-24T07:35:44Z</time>
      </trkpt>
      <trkpt lat="47.32876" lon="4.94157">
        <ele>328</ele>
        <time>2012-11-24T07:35:50Z</time>
      </trkpt>
      <trkpt lat="47.3288" lon="4.94162">
        <ele>328</ele>
        <time>2012-11-24T07:35:54Z</time>
      </trkpt>
      <trkpt lat="47.32877" lon="4.94169">
        <ele>328</ele>
        <time>2012-11-24T07:35:55Z</time>
      </trkpt>
      <trkpt lat="47.32874" lon="4.94176">
        <ele>327</ele>
        <time>2012-11-24T07:35:57Z</time>
      </trkpt>
      <trkpt lat="47.32872" lon="4.94182">
        <ele>325</ele>
        <time>2012-11-24T07:36:01Z</time>
      </trkpt>
      <trkpt lat="47.32868" lon="4.94187">
        <ele>326</ele>
        <time>2012-11-24T07:36:06Z</time>
      </trkpt>
      <trkpt lat="47.32867" lon="4.94193">
        <ele>327</ele>
        <time>2012-11-24T07:36:10Z</time>
      </trkpt>
      <trkpt lat="47.32862" lon="4.94196">
        <ele>328</ele>
        <time>2012-11-24T07:36:12Z</time>
      </trkpt>
      <trkpt lat="47.32858" lon="4.94198">
        <ele>328</ele>
        <time>2012-11-24T07:36:14Z</time>
      </trkpt>
      <trkpt lat="47.32853" lon="4.94201">
        <ele>330</ele>
        <time>2012-11-24T07:36:18Z</time>
      </trkpt>
      <trkpt lat="47.32848" lon="4.94203">
        <ele>331</ele>
        <time>2012-11-24T07:36:21Z</time>
      </trkpt>
      <trkpt lat="47.32844" lon="4.94206">
        <ele>331</ele>
        <time>2012-11-24T07:36:23Z</time>
      </trkpt>
      <trkpt lat="47.32838" lon="4.94208">
        <ele>333</ele>
        <time>2012-11-24T07:36:25Z</time>
      </trkpt>
      <trkpt lat="47.32833" lon="4.94209">
        <ele>335</ele>
        <time>2012-11-24T07:36:28Z</time>
      </trkpt>
      <trkpt lat="47.32829" lon="4.94212">
        <ele>335</ele>
        <time>2012-11-24T07:36:31Z</time>
      </trkpt>
      <trkpt lat="47.32824" lon="4.94218">
        <ele>337</ele>
        <time>2012-11-24T07:36:34Z</time>
      </trkpt>
      <trkpt lat="47.32818" lon="4.94222">
        <ele>336</ele>
        <time>2012-11-24T07:36:37Z</time>
      </trkpt>
      <trkpt lat="47.32815" lon="4.94228">
        <ele>336</ele>
        <time>2012-11-24T07:36:42Z</time>
      </trkpt>
      <trkpt lat="47.32809" lon="4.94228">
        <ele>337</ele>
        <time>2012-11-24T07:36:44Z</time>
      </trkpt>
      <trkpt lat="47.32804" lon="4.94232">
        <ele>338</ele>
        <time>2012-11-24T07:36:47Z</time>
      </trkpt>
      <trkpt lat="47.32798" lon="4.94232">
        <ele>338</ele>
        <time>2012-11-24T07:36:49Z</time>
      </trkpt>
      <trkpt lat="47.32794" lon="4.94236">
        <ele>340</ele>
        <time>2012-11-24T07:36:51Z</time>
      </trkpt>
      <trkpt lat="47.32787" lon="4.94237">
        <ele>341</ele>
        <time>2012-11-24T07:36:54Z</time>
      </trkpt>
      <trkpt lat="47.32783" lon="4.94241">
        <ele>341</ele>
        <time>2012-11-24T07:36:56Z</time>
      </trkpt>
      <trkpt lat="47.3278" lon="4.94246">
        <ele>342</ele>
        <time>2012-11-24T07:36:59Z</time>
      </trkpt>
      <trkpt lat="47.32776" lon="4.94252">
        <ele>342</ele>
        <time>2012-11-24T07:37:03Z</time>
      </trkpt>
      <trkpt lat="47.32772" lon="4.94259">
        <ele>342</ele>
        <time>2012-11-24T07:37:06Z</time>
      </trkpt>
      <trkpt lat="47.32767" lon="4.94265">
        <ele>345</ele>
        <time>2012-11-24T07:37:09Z</time>
      </trkpt>
      <trkpt lat="47.32763" lon="4.94267">
        <ele>345</ele>
        <time>2012-11-24T07:37:12Z</time>
      </trkpt>
      <trkpt lat="47.32759" lon="4.94273">
        <ele>346</ele>
        <time>2012-11-24T07:37:15Z</time>
      </trkpt>
      <trkpt lat="47.32755" lon="4.94278">
        <ele>346</ele>
        <time>2012-11-24T07:37:18Z</time>
      </trkpt>
      <trkpt lat="47.32749" lon="4.94281">
        <ele>345</ele>
        <time>2012-11-24T07:37:21Z</time>
      </trkpt>
      <trkpt lat="47.32748" lon="4.94288">
        <ele>346</ele>
        <time>2012-11-24T07:37:24Z</time>
      </trkpt>
      <trkpt lat="47.32743" lon="4.94293">
        <ele>345</ele>
        <time>2012-11-24T07:37:28Z</time>
      </trkpt>
      <trkpt lat="47.32739" lon="4.943">
        <ele>346</ele>
        <time>2012-11-24T07:37:32Z</time>
      </trkpt>
      <trkpt lat="47.32732" lon="4.943">
        <ele>346</ele>
        <time>2012-11-24T07:37:35Z</time>
      </trkpt>
      <trkpt lat="47.32725" lon="4.94302">
        <ele>346</ele>
        <time>2012-11-24T07:37:38Z</time>
      </trkpt>
      <trkpt lat="47.3272" lon="4.94306">
        <ele>346</ele>
        <time>2012-11-24T07:37:41Z</time>
      </trkpt>
      <trkpt lat="47.32714" lon="4.94307">
        <ele>349</ele>
        <time>2012-11-24T07:37:45Z</time>
      </trkpt>
      <trkpt lat="47.32708" lon="4.9431">
        <ele>348</ele>
        <time>2012-11-24T07:37:49Z</time>
      </trkpt>
      <trkpt lat="47.32703" lon="4.94314">
        <ele>348</ele>
        <time>2012-11-24T07:37:53Z</time>
      </trkpt>
      <trkpt lat="47.32698" lon="4.9432">
        <ele>349</ele>
        <time>2012-11-24T07:37:58Z</time>
      </trkpt>
      <trkpt lat="47.32693" lon="4.94323">
        <ele>350</ele>
        <time>2012-11-24T07:38:01Z</time>
      </trkpt>
      <trkpt lat="47.32688" lon="4.94324">
        <ele>352</ele>
        <time>2012-11-24T07:38:04Z</time>
      </trkpt>
      <trkpt lat="47.32685" lon="4.9433">
        <ele>353</ele>
        <time>2012-11-24T07:38:07Z</time>
      </trkpt>
      <trkpt lat="47.32679" lon="4.94334">
        <ele>355</ele>
        <time>2012-11-24T07:38:10Z</time>
      </trkpt>
      <trkpt lat="47.32674" lon="4.94336">
        <ele>356</ele>
        <time>2012-11-24T07:38:13Z</time>
      </trkpt>
      <trkpt lat="47.32668" lon="4.94338">
        <ele>357</ele>
        <time>2012-11-24T07:38:16Z</time>
      </trkpt>
      <trkpt lat="47.32662" lon="4.94338">
        <ele>357</ele>
        <time>2012-11-24T07:38:19Z</time>
      </trkpt>
      <trkpt lat="47.32657" lon="4.94341">
        <ele>358</ele>
        <time>2012-11-24T07:38:23Z</time>
      </trkpt>
      <trkpt lat="47.32652" lon="4.94342">
        <ele>359</ele>
        <time>2012-11-24T07:38:25Z</time>
      </trkpt>
      <trkpt lat="47.32647" lon="4.94344">
        <ele>360</ele>
        <time>2012-11-24T07:38:28Z</time>
      </trkpt>
      <trkpt lat="47.32641" lon="4.94344">
        <ele>360</ele>
        <time>2012-11-24T07:38:32Z</time>
      </trkpt>
      <trkpt lat="47.32637" lon="4.94347">
        <ele>361</ele>
        <time>2012-11-24T07:38:35Z</time>
      </trkpt>
      <trkpt lat="47.32633" lon="4.94352">
        <ele>361</ele>
        <time>2012-11-24T07:38:38Z</time>
      </trkpt>
      <trkpt lat="47.32628" lon="4.94352">
        <ele>361</ele>
        <time>2012-11-24T07:38:40Z</time>
      </trkpt>
      <trkpt lat="47.32623" lon="4.94352">
        <ele>361</ele>
        <time>2012-11-24T07:38:42Z</time>
      </trkpt>
      <trkpt lat="47.32619" lon="4.94356">
        <ele>362</ele>
        <time>2012-11-24T07:38:45Z</time>
      </trkpt>
      <trkpt lat="47.32613" lon="4.94359">
        <ele>362</ele>
        <time>2012-11-24T07:38:49Z</time>
      </trkpt>
      <trkpt lat="47.32608" lon="4.94359">
        <ele>362</ele>
        <time>2012-11-24T07:38:50Z</time>
      </trkpt>
      <trkpt lat="47.32603" lon="4.94356">
        <ele>361</ele>
        <time>2012-11-24T07:38:53Z</time>
      </trkpt>
      <trkpt lat="47.32598" lon="4.9436">
        <ele>361</ele>
        <time>2012-11-24T07:38:56Z</time>
      </trkpt>
      <trkpt lat="47.32592" lon="4.94361">
        <ele>361</ele>
        <time>2012-11-24T07:38:59Z</time>
      </trkpt>
      <trkpt lat="47.32588" lon="4.94363">
        <ele>361</ele>
        <time>2012-11-24T07:39:01Z</time>
      </trkpt>
      <trkpt lat="47.32583" lon="4.94361">
        <ele>361</ele>
        <time>2012-11-24T07:39:04Z</time>
      </trkpt>
      <trkpt lat="47.32578" lon="4.94362">
        <ele>361</ele>
        <time>2012-11-24T07:39:08Z</time>
      </trkpt>
      <trkpt lat="47.32572" lon="4.94361">
        <ele>363</ele>
        <time>2012-11-24T07:39:10Z</time>
      </trkpt>
      <trkpt lat="47.32567" lon="4.94364">
        <ele>364</ele>
        <time>2012-11-24T07:39:13Z</time>
      </trkpt>
      <trkpt lat="47.32561" lon="4.94366">
        <ele>364</ele>
        <time>2012-11-24T07:39:17Z</time>
      </trkpt>
      <trkpt lat="47.32554" lon="4.94367">
        <ele>364</ele>
        <time>2012-11-24T07:39:21Z</time>
      </trkpt>
      <trkpt lat="47.32549" lon="4.94367">
        <ele>364</ele>
        <time>2012-11-24T07:39:24Z</time>
      </trkpt>
      <trkpt lat="47.32543" lon="4.94368">
        <ele>367</ele>
        <time>2012-11-24T07:39:29Z</time>
      </trkpt>
      <trkpt lat="47.32538" lon="4.94368">
        <ele>367</ele>
        <time>2012-11-24T07:39:32Z</time>
      </trkpt>
      <trkpt lat="47.32533" lon="4.94368">
        <ele>368</ele>
        <time>2012-11-24T07:39:34Z</time>
      </trkpt>
      <trkpt lat="47.32528" lon="4.94369">
        <ele>368</ele>
        <time>2012-11-24T07:39:36Z</time>
      </trkpt>
      <trkpt lat="47.32522" lon="4.9437">
        <ele>368</ele>
        <time>2012-11-24T07:39:38Z</time>
      </trkpt>
      <trkpt lat="47.32516" lon="4.94374">
        <ele>369</ele>
        <time>2012-11-24T07:39:42Z</time>
      </trkpt>
      <trkpt lat="47.32512" lon="4.94372">
        <ele>370</ele>
        <time>2012-11-24T07:39:45Z</time>
      </trkpt>
      <trkpt lat="47.32506" lon="4.94375">
        <ele>369</ele>
        <time>2012-11-24T07:39:50Z</time>
      </trkpt>
      <trkpt lat="47.32501" lon="4.94379">
        <ele>370</ele>
        <time>2012-11-24T07:39:53Z</time>
      </trkpt>
      <trkpt lat="47.32496" lon="4.9438">
        <ele>369</ele>
        <time>2012-11-24T07:40:01Z</time>
      </trkpt>
      <trkpt lat="47.32496" lon="4.9438">
        <ele>369</ele>
        <time>2012-11-24T07:40:01Z</time>
      </trkpt>
      <trkpt lat="47.32496" lon="4.9438">
        <ele>369</ele>
        <time>2012-11-24T07:40:02Z</time>
      </trkpt>
      <trkpt lat="47.32489" lon="4.94382">
        <ele>369</ele>
        <time>2012-11-24T07:40:04Z</time>
      </trkpt>
      <trkpt lat="47.32484" lon="4.94383">
        <ele>369</ele>
        <time>2012-11-24T07:40:06Z</time>
      </trkpt>
      <trkpt lat="47.32476" lon="4.94383">
        <ele>369</ele>
        <time>2012-11-24T07:40:08Z</time>
      </trkpt>
      <trkpt lat="47.3247" lon="4.94384">
        <ele>370</ele>
        <time>2012-11-24T07:40:10Z</time>
      </trkpt>
      <trkpt lat="47.32465" lon="4.94385">
        <ele>372</ele>
        <time>2012-11-24T07:40:13Z</time>
      </trkpt>
      <trkpt lat="47.32461" lon="4.94387">
        <ele>372</ele>
        <time>2012-11-24T07:40:15Z</time>
      </trkpt>
      <trkpt lat="47.32455" lon="4.9439">
        <ele>371</ele>
        <time>2012-11-24T07:40:18Z</time>
      </trkpt>
      <trkpt lat="47.3245" lon="4.9439">
        <ele>372</ele>
        <time>2012-11-24T07:40:22Z</time>
      </trkpt>
      <trkpt lat="47.32446" lon="4.94391">
        <ele>373</ele>
        <time>2012-11-24T07:40:26Z</time>
      </trkpt>
      <trkpt lat="47.32439" lon="4.94392">
        <ele>372</ele>
        <time>2012-11-24T07:40:29Z</time>
      </trkpt>
      <trkpt lat="47.32432" lon="4.94394">
        <ele>371</ele>
        <time>2012-11-24T07:40:32Z</time>
      </trkpt>
      <trkpt lat="47.32427" lon="4.94395">
        <ele>373</ele>
        <time>2012-11-24T07:40:35Z</time>
      </trkpt>
      <trkpt lat="47.32421" lon="4.94397">
        <ele>373</ele>
        <time>2012-11-24T07:40:38Z</time>
      </trkpt>
      <trkpt lat="47.32417" lon="4.94401">
        <ele>373</ele>
        <time>2012-11-24T07:40:41Z</time>
      </trkpt>
      <trkpt lat="47.32412" lon="4.94404">
        <ele>371</ele>
        <time>2012-11-24T07:40:45Z</time>
      </trkpt>
      <trkpt lat="47.32406" lon="4.94405">
        <ele>372</ele>
        <time>2012-11-24T07:40:49Z</time>
      </trkpt>
      <trkpt lat="47.32403" lon="4.94412">
        <ele>371</ele>
        <time>2012-11-24T07:40:55Z</time>
      </trkpt>
      <trkpt lat="47.32398" lon="4.94416">
        <ele>371</ele>
        <time>2012-11-24T07:40:58Z</time>
      </trkpt>
      <trkpt lat="47.32392" lon="4.94418">
        <ele>371</ele>
        <time>2012-11-24T07:41:01Z</time>
      </trkpt>
      <trkpt lat="47.32387" lon="4.9442">
        <ele>371</ele>
        <time>2012-11-24T07:41:04Z</time>
      </trkpt>
      <trkpt lat="47.32383" lon="4.94424">
        <ele>372</ele>
        <time>2012-11-24T07:41:08Z</time>
      </trkpt>
      <trkpt lat="47.32377" lon="4.94427">
        <ele>372</ele>
        <time>2012-11-24T07:41:12Z</time>
      </trkpt>
      <trkpt lat="47.32372" lon="4.94427">
        <ele>373</ele>
        <time>2012-11-24T07:41:18Z</time>
      </trkpt>
      <trkpt lat="47.32366" lon="4.94428">
        <ele>374</ele>
        <time>2012-11-24T07:41:20Z</time>
      </trkpt>
      <trkpt lat="47.32359" lon="4.94429">
        <ele>375</ele>
        <time>2012-11-24T07:41:26Z</time>
      </trkpt>
      <trkpt lat="47.32352" lon="4.94431">
        <ele>375</ele>
        <time>2012-11-24T07:41:28Z</time>
      </trkpt>
      <trkpt lat="47.32347" lon="4.94432">
        <ele>378</ele>
        <time>2012-11-24T07:41:31Z</time>
      </trkpt>
      <trkpt lat="47.32343" lon="4.94432">
        <ele>379</ele>
        <time>2012-11-24T07:41:33Z</time>
      </trkpt>
      <trkpt lat="47.32343" lon="4.94432">
        <ele>379</ele>
        <time>2012-11-24T07:41:33Z</time>
      </trkpt>
      <trkpt lat="47.32343" lon="4.94432">
        <ele>380</ele>
        <time>2012-11-24T07:41:34Z</time>
      </trkpt>
      <trkpt lat="47.32337" lon="4.94436">
        <ele>381</ele>
        <time>2012-11-24T07:41:38Z</time>
      </trkpt>
      <trkpt lat="47.32332" lon="4.94438">
        <ele>382</ele>
        <time>2012-11-24T07:41:41Z</time>
      </trkpt>
      <trkpt lat="47.32326" lon="4.94438">
        <ele>381</ele>
        <time>2012-11-24T07:41:46Z</time>
      </trkpt>
      <trkpt lat="47.32321" lon="4.94432">
        <ele>382</ele>
        <time>2012-11-24T07:41:49Z</time>
      </trkpt>
      <trkpt lat="47.32314" lon="4.94432">
        <ele>383</ele>
        <time>2012-11-24T07:41:51Z</time>
      </trkpt>
      <trkpt lat="47.32308" lon="4.94435">
        <ele>382</ele>
        <time>2012-11-24T07:41:54Z</time>
      </trkpt>
      <trkpt lat="47.32302" lon="4.94434">
        <ele>382</ele>
        <time>2012-11-24T07:41:57Z</time>
      </trkpt>
      <trkpt lat="47.32298" lon="4.94437">
        <ele>381</ele>
        <time>2012-11-24T07:42:01Z</time>
      </trkpt>
      <trkpt lat="47.32292" lon="4.94437">
        <ele>384</ele>
        <time>2012-11-24T07:42:06Z</time>
      </trkpt>
      <trkpt lat="47.32287" lon="4.9444">
        <ele>386</ele>
        <time>2012-11-24T07:42:10Z</time>
      </trkpt>
      <trkpt lat="47.32283" lon="4.94444">
        <ele>388</ele>
        <time>2012-11-24T07:42:16Z</time>
      </trkpt>
      <trkpt lat="47.32279" lon="4.9445">
        <ele>390</ele>
        <time>2012-11-24T07:42:20Z</time>
      </trkpt>
      <trkpt lat="47.32277" lon="4.94456">
        <ele>390</ele>
        <time>2012-11-24T07:42:23Z</time>
      </trkpt>
      <trkpt lat="47.32273" lon="4.94462">
        <ele>392</ele>
        <time>2012-11-24T07:42:27Z</time>
      </trkpt>
      <trkpt lat="47.32268" lon="4.94465">
        <ele>392</ele>
        <time>2012-11-24T07:42:32Z</time>
      </trkpt>
      <trkpt lat="47.32264" lon="4.9447">
        <ele>392</ele>
        <time>2012-11-24T07:42:36Z</time>
      </trkpt>
      <trkpt lat="47.32259" lon="4.94472">
        <ele>392</ele>
        <time>2012-11-24T07:42:38Z</time>
      </trkpt>
      <trkpt lat="47.32255" lon="4.94474">
        <ele>394</ele>
        <time>2012-11-24T07:42:40Z</time>
      </trkpt>
      <trkpt lat="47.32251" lon="4.94479">
        <ele>395</ele>
        <time>2012-11-24T07:42:44Z</time>
      </trkpt>
      <trkpt lat="47.32248" lon="4.94484">
        <ele>397</ele>
        <time>2012-11-24T07:42:47Z</time>
      </trkpt>
      <trkpt lat="47.32246" lon="4.94493">
        <ele>400</ele>
        <time>2012-11-24T07:42:55Z</time>
      </trkpt>
      <trkpt lat="47.32243" lon="4.94498">
        <ele>398</ele>
        <time>2012-11-24T07:43:00Z</time>
      </trkpt>
      <trkpt lat="47.32239" lon="4.94502">
        <ele>400</ele>
        <time>2012-11-24T07:43:04Z</time>
      </trkpt>
      <trkpt lat="47.32235" lon="4.94506">
        <ele>400</ele>
        <time>2012-11-24T07:43:07Z</time>
      </trkpt>
      <trkpt lat="47.32232" lon="4.9451">
        <ele>401</ele>
        <time>2012-11-24T07:43:11Z</time>
      </trkpt>
      <trkpt lat="47.32229" lon="4.94516">
        <ele>402</ele>
        <time>2012-11-24T07:43:23Z</time>
      </trkpt>
      <trkpt lat="47.32222" lon="4.94519">
        <ele>403</ele>
        <time>2012-11-24T07:43:31Z</time>
      </trkpt>
      <trkpt lat="47.32218" lon="4.94527">
        <ele>406</ele>
        <time>2012-11-24T07:43:33Z</time>
      </trkpt>
      <trkpt lat="47.32213" lon="4.94535">
        <ele>409</ele>
        <time>2012-11-24T07:43:36Z</time>
      </trkpt>
      <trkpt lat="47.3221" lon="4.94539">
        <ele>410</ele>
        <time>2012-11-24T07:43:38Z</time>
      </trkpt>
      <trkpt lat="47.32206" lon="4.94543">
        <ele>410</ele>
        <time>2012-11-24T07:43:40Z</time>
      </trkpt>
      <trkpt lat="47.32201" lon="4.94546">
        <ele>409</ele>
        <time>2012-11-24T07:43:44Z</time>
      </trkpt>
      <trkpt lat="47.32197" lon="4.94549">
        <ele>409</ele>
        <time>2012-11-24T07:43:49Z</time>
      </trkpt>
      <trkpt lat="47.32193" lon="4.94555">
        <ele>410</ele>
        <time>2012-11-24T07:43:53Z</time>
      </trkpt>
      <trkpt lat="47.32191" lon="4.94561">
        <ele>410</ele>
        <time>2012-11-24T07:43:56Z</time>
      </trkpt>
      <trkpt lat="47.32188" lon="4.94568">
        <ele>409</ele>
        <time>2012-11-24T07:44:01Z</time>
      </trkpt>
      <trkpt lat="47.32183" lon="4.9457">
        <ele>410</ele>
        <time>2012-11-24T07:44:05Z</time>
      </trkpt>
      <trkpt lat="47.32177" lon="4.94574">
        <ele>411</ele>
        <time>2012-11-24T07:44:11Z</time>
      </trkpt>
      <trkpt lat="47.32174" lon="4.94578">
        <ele>413</ele>
        <time>2012-11-24T07:44:22Z</time>
      </trkpt>
      <trkpt lat="47.32174" lon="4.94578">
        <ele>413</ele>
        <time>2012-11-24T07:44:22Z</time>
      </trkpt>
      <trkpt lat="47.32174" lon="4.94578">
        <ele>413</ele>
        <time>2012-11-24T07:44:23Z</time>
      </trkpt>
      <trkpt lat="47.32169" lon="4.94585">
        <ele>413</ele>
        <time>2012-11-24T07:44:31Z</time>
      </trkpt>
      <trkpt lat="47.32164" lon="4.94586">
        <ele>415</ele>
        <time>2012-11-24T07:44:33Z</time>
      </trkpt>
      <trkpt lat="47.32159" lon="4.94593">
        <ele>417</ele>
        <time>2012-11-24T07:44:35Z</time>
      </trkpt>
      <trkpt lat="47.32156" lon="4.94598">
        <ele>418</ele>
        <time>2012-11-24T07:44:39Z</time>
      </trkpt>
      <trkpt lat="47.32152" lon="4.94605">
        <ele>417</ele>
        <time>2012-11-24T07:44:44Z</time>
      </trkpt>
      <trkpt lat="47.32148" lon="4.94612">
        <ele>418</ele>
        <time>2012-11-24T07:44:50Z</time>
      </trkpt>
      <trkpt lat="47.32143" lon="4.94614">
        <ele>419</ele>
        <time>2012-11-24T07:44:53Z</time>
      </trkpt>
      <trkpt lat="47.32138" lon="4.94616">
        <ele>421</ele>
        <time>2012-11-24T07:44:56Z</time>
      </trkpt>
      <trkpt lat="47.32134" lon="4.9462">
        <ele>422</ele>
        <time>2012-11-24T07:44:59Z</time>
      </trkpt>
      <trkpt lat="47.3213" lon="4.94622">
        <ele>422</ele>
        <time>2012-11-24T07:45:02Z</time>
      </trkpt>
      <trkpt lat="47.32126" lon="4.94627">
        <ele>423</ele>
        <time>2012-11-24T07:45:05Z</time>
      </trkpt>
      <trkpt lat="47.32122" lon="4.94632">
        <ele>424</ele>
        <time>2012-11-24T07:45:13Z</time>
      </trkpt>
      <trkpt lat="47.32119" lon="4.94638">
        <ele>424</ele>
        <time>2012-11-24T07:45:17Z</time>
      </trkpt>
      <trkpt lat="47.32118" lon="4.94645">
        <ele>424</ele>
        <time>2012-11-24T07:45:21Z</time>
      </trkpt>
      <trkpt lat="47.32115" lon="4.94653">
        <ele>427</ele>
        <time>2012-11-24T07:45:24Z</time>
      </trkpt>
      <trkpt lat="47.32111" lon="4.94659">
        <ele>428</ele>
        <time>2012-11-24T07:45:29Z</time>
      </trkpt>
      <trkpt lat="47.32105" lon="4.94659">
        <ele>428</ele>
        <time>2012-11-24T07:45:33Z</time>
      </trkpt>
      <trkpt lat="47.32101" lon="4.94661">
        <ele>429</ele>
        <time>2012-11-24T07:45:44Z</time>
      </trkpt>
      <trkpt lat="47.32101" lon="4.94661">
        <ele>429</ele>
        <time>2012-11-24T07:45:44Z</time>
      </trkpt>
      <trkpt lat="47.32101" lon="4.94661">
        <ele>429</ele>
        <time>2012-11-24T07:45:45Z</time>
      </trkpt>
      <trkpt lat="47.32097" lon="4.94666">
        <ele>429</ele>
        <time>2012-11-24T07:45:47Z</time>
      </trkpt>
      <trkpt lat="47.3209" lon="4.94669">
        <ele>429</ele>
        <time>2012-11-24T07:45:49Z</time>
      </trkpt>
      <trkpt lat="47.32084" lon="4.94668">
        <ele>431</ele>
        <time>2012-11-24T07:45:51Z</time>
      </trkpt>
      <trkpt lat="47.32078" lon="4.94668">
        <ele>430</ele>
        <time>2012-11-24T07:45:52Z</time>
      </trkpt>
      <trkpt lat="47.32072" lon="4.94672">
        <ele>432</ele>
        <time>2012-11-24T07:46:16Z</time>
      </trkpt>
      <trkpt lat="47.32067" lon="4.94678">
        <ele>434</ele>
        <time>2012-11-24T07:46:18Z</time>
      </trkpt>
      <trkpt lat="47.32062" lon="4.94681">
        <ele>436</ele>
        <time>2012-11-24T07:46:20Z</time>
      </trkpt>
      <trkpt lat="47.32053" lon="4.94686">
        <ele>439</ele>
        <time>2012-11-24T07:46:23Z</time>
      </trkpt>
      <trkpt lat="47.32046" lon="4.94685">
        <ele>439</ele>
        <time>2012-11-24T07:46:26Z</time>
      </trkpt>
      <trkpt lat="47.32045" lon="4.94692">
        <ele>442</ele>
        <time>2012-11-24T07:46:30Z</time>
      </trkpt>
      <trkpt lat="47.3204" lon="4.94695">
        <ele>445</ele>
        <time>2012-11-24T07:46:34Z</time>
      </trkpt>
      <trkpt lat="47.32035" lon="4.94697">
        <ele>449</ele>
        <time>2012-11-24T07:46:39Z</time>
      </trkpt>
      <trkpt lat="47.32031" lon="4.947">
        <ele>449</ele>
        <time>2012-11-24T07:46:48Z</time>
      </trkpt>
      <trkpt lat="47.32031" lon="4.947">
        <ele>449</ele>
        <time>2012-11-24T07:46:48Z</time>
      </trkpt>
      <trkpt lat="47.32031" lon="4.947">
        <ele>449</ele>
        <time>2012-11-24T07:46:49Z</time>
      </trkpt>
      <trkpt lat="47.32024" lon="4.94705">
        <ele>449</ele>
        <time>2012-11-24T07:46:53Z</time>
      </trkpt>
      <trkpt lat="47.32019" lon="4.94709">
        <ele>451</ele>
        <time>2012-11-24T07:46:56Z</time>
      </trkpt>
      <trkpt lat="47.32015" lon="4.94713">
        <ele>452</ele>
        <time>2012-11-24T07:46:59Z</time>
      </trkpt>
      <trkpt lat="47.32009" lon="4.94716">
        <ele>452</ele>
        <time>2012-11-24T07:47:02Z</time>
      </trkpt>
      <trkpt lat="47.32006" lon="4.94722">
        <ele>454</ele>
        <time>2012-11-24T07:47:07Z</time>
      </trkpt>
      <trkpt lat="47.32" lon="4.94728">
        <ele>456</ele>
        <time>2012-11-24T07:47:11Z</time>
      </trkpt>
      <trkpt lat="47.31999" lon="4.94734">
        <ele>455</ele>
        <time>2012-11-24T07:47:15Z</time>
      </trkpt>
      <trkpt lat="47.31996" lon="4.9474">
        <ele>457</ele>
        <time>2012-11-24T07:47:19Z</time>
      </trkpt>
      <trkpt lat="47.31994" lon="4.94746">
        <ele>457</ele>
        <time>2012-11-24T07:47:24Z</time>
      </trkpt>
      <trkpt lat="47.31995" lon="4.94753">
        <ele>458</ele>
        <time>2012-11-24T07:47:28Z</time>
      </trkpt>
      <trkpt lat="47.31992" lon="4.9476">
        <ele>458</ele>
        <time>2012-11-24T07:47:32Z</time>
      </trkpt>
      <trkpt lat="47.31994" lon="4.94766">
        <ele>457</ele>
        <time>2012-11-24T07:47:39Z</time>
      </trkpt>
      <trkpt lat="47.31996" lon="4.94775">
        <ele>455</ele>
        <time>2012-11-24T07:47:43Z</time>
      </trkpt>
      <trkpt lat="47.31996" lon="4.94783">
        <ele>453</ele>
        <time>2012-11-24T07:47:46Z</time>
      </trkpt>
      <trkpt lat="47.31997" lon="4.94792">
        <ele>451</ele>
        <time>2012-11-24T07:47:50Z</time>
      </trkpt>
      <trkpt lat="47.31998" lon="4.94798">
        <ele>448</ele>
        <time>2012-11-24T07:47:54Z</time>
      </trkpt>
      <trkpt lat="47.31998" lon="4.94798">
        <ele>448</ele>
        <time>2012-11-24T07:47:54Z</time>
      </trkpt>
      <trkpt lat="47.31998" lon="4.94798">
        <ele>448</ele>
        <time>2012-11-24T07:47:55Z</time>
      </trkpt>
      <trkpt lat="47.32" lon="4.94805">
        <ele>448</ele>
        <time>2012-11-24T07:47:58Z</time>
      </trkpt>
      <trkpt lat="47.31998" lon="4.94812">
        <ele>447</ele>
        <time>2012-11-24T07:48:00Z</time>
      </trkpt>
      <trkpt lat="47.32001" lon="4.94818">
        <ele>450</ele>
        <time>2012-11-24T07:48:04Z</time>
      </trkpt>
      <trkpt lat="47.32001" lon="4.94827">
        <ele>450</ele>
        <time>2012-11-24T07:48:11Z</time>
      </trkpt>
      <trkpt lat="47.32002" lon="4.94834">
        <ele>449</ele>
        <time>2012-11-24T07:48:17Z</time>
      </trkpt>
      <trkpt lat="47.32004" lon="4.94842">
        <ele>449</ele>
        <time>2012-11-24T07:48:21Z</time>
      </trkpt>
      <trkpt lat="47.32006" lon="4.9485">
        <ele>450</ele>
        <time>2012-11-24T07:48:28Z</time>
      </trkpt>
      <trkpt lat="47.32007" lon="4.94858">
        <ele>451</ele>
        <time>2012-11-24T07:48:33Z</time>
      </trkpt>
      <trkpt lat="47.32007" lon="4.94858">
        <ele>451</ele>
        <time>2012-11-24T07:48:33Z</time>
      </trkpt>
      <trkpt lat="47.32007" lon="4.94858">
        <ele>452</ele>
        <time>2012-11-24T07:48:34Z</time>
      </trkpt>
      <trkpt lat="47.32009" lon="4.94864">
        <ele>452</ele>
        <time>2012-11-24T07:48:56Z</time>
      </trkpt>
      <trkpt lat="47.32013" lon="4.94869">
        <ele>451</ele>
        <time>2012-11-24T07:48:58Z</time>
      </trkpt>
      <trkpt lat="47.32016" lon="4.94874">
        <ele>450</ele>
        <time>2012-11-24T07:49:03Z</time>
      </trkpt>
      <trkpt lat="47.32021" lon="4.94871">
        <ele>452</ele>
        <time>2012-11-24T07:49:11Z</time>
      </trkpt>
      <trkpt lat="47.32027" lon="4.94872">
        <ele>452</ele>
        <time>2012-11-24T07:49:15Z</time>
      </trkpt>
      <trkpt lat="47.3203" lon="4.94866">
        <ele>454</ele>
        <time>2012-11-24T07:49:18Z</time>
      </trkpt>
      <trkpt lat="47.32029" lon="4.9486">
        <ele>455</ele>
        <time>2012-11-24T07:49:24Z</time>
      </trkpt>
      <trkpt lat="47.32031" lon="4.94852">
        <ele>455</ele>
        <time>2012-11-24T07:49:28Z</time>
      </trkpt>
      <trkpt lat="47.32029" lon="4.94846">
        <ele>454</ele>
        <time>2012-11-24T07:49:31Z</time>
      </trkpt>
      <trkpt lat="47.3203" lon="4.94838">
        <ele>454</ele>
        <time>2012-11-24T07:49:37Z</time>
      </trkpt>
      <trkpt lat="47.32031" lon="4.9483">
        <ele>455</ele>
        <time>2012-11-24T07:49:43Z</time>
      </trkpt>
      <trkpt lat="47.32029" lon="4.94824">
        <ele>456</ele>
        <time>2012-11-24T07:49:48Z</time>
      </trkpt>
      <trkpt lat="47.32024" lon="4.94819">
        <ele>454</ele>
        <time>2012-11-24T07:49:54Z</time>
      </trkpt>
      <trkpt lat="47.32021" lon="4.94813">
        <ele>453</ele>
        <time>2012-11-24T07:50:00Z</time>
      </trkpt>
      <trkpt lat="47.3202" lon="4.94804">
        <ele>453</ele>
        <time>2012-11-24T07:50:09Z</time>
      </trkpt>
      <trkpt lat="47.32018" lon="4.94796">
        <ele>453</ele>
        <time>2012-11-24T07:50:13Z</time>
      </trkpt>
      <trkpt lat="47.3202" lon="4.94789">
        <ele>452</ele>
        <time>2012-11-24T07:50:15Z</time>
      </trkpt>
      <trkpt lat="47.32021" lon="4.9478">
        <ele>452</ele>
        <time>2012-11-24T07:50:18Z</time>
      </trkpt>
      <trkpt lat="47.32026" lon="4.94773">
        <ele>452</ele>
        <time>2012-11-24T07:50:20Z</time>
      </trkpt>
      <trkpt lat="47.3203" lon="4.94764">
        <ele>452</ele>
        <time>2012-11-24T07:50:23Z</time>
      </trkpt>
      <trkpt lat="47.32028" lon="4.94759">
        <ele>452</ele>
        <time>2012-11-24T07:50:28Z</time>
      </trkpt>
      <trkpt lat="47.32022" lon="4.94753">
        <ele>451</ele>
        <time>2012-11-24T07:50:33Z</time>
      </trkpt>
      <trkpt lat="47.32019" lon="4.94746">
        <ele>452</ele>
        <time>2012-11-24T07:50:36Z</time>
      </trkpt>
      <trkpt lat="47.32012" lon="4.94744">
        <ele>452</ele>
        <time>2012-11-24T07:50:38Z</time>
      </trkpt>
      <trkpt lat="47.32007" lon="4.94746">
        <ele>453</ele>
        <time>2012-11-24T07:50:45Z</time>
      </trkpt>
      <trkpt lat="47.32002" lon="4.94749">
        <ele>453</ele>
        <time>2012-11-24T07:50:47Z</time>
      </trkpt>
      <trkpt lat="47.31999" lon="4.94754">
        <ele>454</ele>
        <time>2012-11-24T07:50:50Z</time>
      </trkpt>
      <trkpt lat="47.31998" lon="4.94763">
        <ele>454</ele>
        <time>2012-11-24T07:50:59Z</time>
      </trkpt>
      <trkpt lat="47.31998" lon="4.94771">
        <ele>457</ele>
        <time>2012-11-24T07:51:04Z</time>
      </trkpt>
      <trkpt lat="47.31998" lon="4.9478">
        <ele>456</ele>
        <time>2012-11-24T07:51:08Z</time>
      </trkpt>
      <trkpt lat="47.31998" lon="4.94788">
        <ele>456</ele>
        <time>2012-11-24T07:51:13Z</time>
      </trkpt>
      <trkpt lat="47.31999" lon="4.94797">
        <ele>455</ele>
        <time>2012-11-24T07:51:20Z</time>
      </trkpt>
      <trkpt lat="47.32001" lon="4.94807">
        <ele>455</ele>
        <time>2012-11-24T07:51:24Z</time>
      </trkpt>
      <trkpt lat="47.32002" lon="4.94816">
        <ele>452</ele>
        <time>2012-11-24T07:51:27Z</time>
      </trkpt>
      <trkpt lat="47.32002" lon="4.94822">
        <ele>454</ele>
        <time>2012-11-24T07:51:37Z</time>
      </trkpt>
      <trkpt lat="47.32004" lon="4.94831">
        <ele>455</ele>
        <time>2012-11-24T07:51:41Z</time>
      </trkpt>
      <trkpt lat="47.32006" lon="4.94838">
        <ele>457</ele>
        <time>2012-11-24T07:51:46Z</time>
      </trkpt>
      <trkpt lat="47.32006" lon="4.94847">
        <ele>456</ele>
        <time>2012-11-24T07:51:50Z</time>
      </trkpt>
      <trkpt lat="47.32008" lon="4.94854">
        <ele>456</ele>
        <time>2012-11-24T07:51:55Z</time>
      </trkpt>
      <trkpt lat="47.3201" lon="4.9486">
        <ele>456</ele>
        <time>2012-11-24T07:52:07Z</time>
      </trkpt>
      <trkpt lat="47.32013" lon="4.94866">
        <ele>456</ele>
        <time>2012-11-24T07:52:18Z</time>
      </trkpt>
      <trkpt lat="47.32018" lon="4.94872">
        <ele>457</ele>
        <time>2012-11-24T07:52:25Z</time>
      </trkpt>
      <trkpt lat="47.32021" lon="4.94878">
        <ele>456</ele>
        <time>2012-11-24T07:52:29Z</time>
      </trkpt>
      <trkpt lat="47.32025" lon="4.94892">
        <ele>456</ele>
        <time>2012-11-24T07:52:34Z</time>
      </trkpt>
      <trkpt lat="47.3203" lon="4.94899">
        <ele>454</ele>
        <time>2012-11-24T07:52:35Z</time>
      </trkpt>
      <trkpt lat="47.32032" lon="4.94908">
        <ele>455</ele>
        <time>2012-11-24T07:52:37Z</time>
      </trkpt>
      <trkpt lat="47.32035" lon="4.94916">
        <ele>452</ele>
        <time>2012-11-24T07:52:41Z</time>
      </trkpt>
      <trkpt lat="47.32036" lon="4.94923">
        <ele>457</ele>
        <time>2012-11-24T07:52:46Z</time>
      </trkpt>
      <trkpt lat="47.32037" lon="4.94934">
        <ele>456</ele>
        <time>2012-11-24T07:52:50Z</time>
      </trkpt>
      <trkpt lat="47.32037" lon="4.9494">
        <ele>460</ele>
        <time>2012-11-24T07:53:06Z</time>
      </trkpt>
      <trkpt lat="47.32038" lon="4.94948">
        <ele>462</ele>
        <time>2012-11-24T07:53:36Z</time>
      </trkpt>
      <trkpt lat="47.32035" lon="4.94953">
        <ele>463</ele>
        <time>2012-11-24T07:56:56Z</time>
      </trkpt>
      <trkpt lat="47.32029" lon="4.94953">
        <ele>461</ele>
        <time>2012-11-24T07:57:04Z</time>
      </trkpt>
      <trkpt lat="47.32024" lon="4.94954">
        <ele>462</ele>
        <time>2012-11-24T07:57:09Z</time>
      </trkpt>
      <trkpt lat="47.32018" lon="4.94956">
        <ele>463</ele>
        <time>2012-11-24T07:57:14Z</time>
      </trkpt>
      <trkpt lat="47.32013" lon="4.94958">
        <ele>466</ele>
        <time>2012-11-24T07:57:18Z</time>
      </trkpt>
      <trkpt lat="47.32007" lon="4.94959">
        <ele>465</ele>
        <time>2012-11-24T07:57:21Z</time>
      </trkpt>
      <trkpt lat="47.32001" lon="4.94961">
        <ele>468</ele>
        <time>2012-11-24T07:57:28Z</time>
      </trkpt>
      <trkpt lat="47.31996" lon="4.94959">
        <ele>467</ele>
        <time>2012-11-24T07:57:32Z</time>
      </trkpt>
      <trkpt lat="47.31993" lon="4.94952">
        <ele>467</ele>
        <time>2012-11-24T07:57:35Z</time>
      </trkpt>
      <trkpt lat="47.3199" lon="4.94945">
        <ele>467</ele>
        <time>2012-11-24T07:57:39Z</time>
      </trkpt>
      <trkpt lat="47.31987" lon="4.94939">
        <ele>466</ele>
        <time>2012-11-24T07:57:41Z</time>
      </trkpt>
      <trkpt lat="47.31983" lon="4.94932">
        <ele>465</ele>
        <time>2012-11-24T07:57:45Z</time>
      </trkpt>
      <trkpt lat="47.3198" lon="4.94926">
        <ele>466</ele>
        <time>2012-11-24T07:57:48Z</time>
      </trkpt>
      <trkpt lat="47.31977" lon="4.94922">
        <ele>467</ele>
        <time>2012-11-24T07:57:51Z</time>
      </trkpt>
      <trkpt lat="47.31974" lon="4.94914">
        <ele>467</ele>
        <time>2012-11-24T07:57:55Z</time>
      </trkpt>
      <trkpt lat="47.3197" lon="4.94909">
        <ele>468</ele>
        <time>2012-11-24T07:57:59Z</time>
      </trkpt>
      <trkpt lat="47.31965" lon="4.94903">
        <ele>468</ele>
        <time>2012-11-24T07:58:02Z</time>
      </trkpt>
      <trkpt lat="47.31961" lon="4.94899">
        <ele>470</ele>
        <time>2012-11-24T07:58:07Z</time>
      </trkpt>
      <trkpt lat="47.31957" lon="4.94893">
        <ele>470</ele>
        <time>2012-11-24T07:58:11Z</time>
      </trkpt>
      <trkpt lat="47.31953" lon="4.94887">
        <ele>470</ele>
        <time>2012-11-24T07:58:15Z</time>
      </trkpt>
      <trkpt lat="47.31949" lon="4.94882">
        <ele>468</ele>
        <time>2012-11-24T07:58:19Z</time>
      </trkpt>
      <trkpt lat="47.31945" lon="4.94874">
        <ele>467</ele>
        <time>2012-11-24T07:58:24Z</time>
      </trkpt>
      <trkpt lat="47.31941" lon="4.94869">
        <ele>467</ele>
        <time>2012-11-24T07:58:27Z</time>
      </trkpt>
      <trkpt lat="47.31938" lon="4.94862">
        <ele>467</ele>
        <time>2012-11-24T07:58:31Z</time>
      </trkpt>
      <trkpt lat="47.31935" lon="4.94852">
        <ele>467</ele>
        <time>2012-11-24T07:58:35Z</time>
      </trkpt>
      <trkpt lat="47.31934" lon="4.94844">
        <ele>468</ele>
        <time>2012-11-24T07:58:37Z</time>
      </trkpt>
      <trkpt lat="47.31932" lon="4.94838">
        <ele>469</ele>
        <time>2012-11-24T07:58:39Z</time>
      </trkpt>
      <trkpt lat="47.3193" lon="4.94829">
        <ele>470</ele>
        <time>2012-11-24T07:58:43Z</time>
      </trkpt>
      <trkpt lat="47.31927" lon="4.94823">
        <ele>470</ele>
        <time>2012-11-24T07:58:46Z</time>
      </trkpt>
      <trkpt lat="47.31923" lon="4.94819">
        <ele>471</ele>
        <time>2012-11-24T07:58:50Z</time>
      </trkpt>
      <trkpt lat="47.31921" lon="4.94811">
        <ele>471</ele>
        <time>2012-11-24T07:58:53Z</time>
      </trkpt>
      <trkpt lat="47.31919" lon="4.94804">
        <ele>470</ele>
        <time>2012-11-24T07:58:56Z</time>
      </trkpt>
      <trkpt lat="47.31917" lon="4.94798">
        <ele>469</ele>
        <time>2012-11-24T07:58:59Z</time>
      </trkpt>
      <trkpt lat="47.31914" lon="4.94791">
        <ele>469</ele>
        <time>2012-11-24T07:59:02Z</time>
      </trkpt>
      <trkpt lat="47.31912" lon="4.94785">
        <ele>469</ele>
        <time>2012-11-24T07:59:05Z</time>
      </trkpt>
      <trkpt lat="47.3191" lon="4.94778">
        <ele>469</ele>
        <time>2012-11-24T07:59:08Z</time>
      </trkpt>
      <trkpt lat="47.31909" lon="4.9477">
        <ele>469</ele>
        <time>2012-11-24T07:59:11Z</time>
      </trkpt>
      <trkpt lat="47.31908" lon="4.94763">
        <ele>469</ele>
        <time>2012-11-24T07:59:14Z</time>
      </trkpt>
      <trkpt lat="47.31905" lon="4.94755">
        <ele>470</ele>
        <time>2012-11-24T07:59:18Z</time>
      </trkpt>
      <trkpt lat="47.31903" lon="4.94749">
        <ele>470</ele>
        <time>2012-11-24T07:59:21Z</time>
      </trkpt>
      <trkpt lat="47.319" lon="4.94741">
        <ele>469</ele>
        <time>2012-11-24T07:59:25Z</time>
      </trkpt>
      <trkpt lat="47.31902" lon="4.94735">
        <ele>469</ele>
        <time>2012-11-24T07:59:28Z</time>
      </trkpt>
      <trkpt lat="47.31904" lon="4.94729">
        <ele>469</ele>
        <time>2012-11-24T07:59:31Z</time>
      </trkpt>
      <trkpt lat="47.31907" lon="4.94722">
        <ele>468</ele>
        <time>2012-11-24T07:59:34Z</time>
      </trkpt>
      <trkpt lat="47.31908" lon="4.94714">
        <ele>467</ele>
        <time>2012-11-24T07:59:38Z</time>
      </trkpt>
      <trkpt lat="47.31909" lon="4.94707">
        <ele>466</ele>
        <time>2012-11-24T07:59:41Z</time>
      </trkpt>
      <trkpt lat="47.31911" lon="4.947">
        <ele>466</ele>
        <time>2012-11-24T07:59:45Z</time>
      </trkpt>
      <trkpt lat="47.3191" lon="4.94691">
        <ele>466</ele>
        <time>2012-11-24T07:59:49Z</time>
      </trkpt>
      <trkpt lat="47.31909" lon="4.94684">
        <ele>466</ele>
        <time>2012-11-24T07:59:52Z</time>
      </trkpt>
      <trkpt lat="47.31909" lon="4.94676">
        <ele>466</ele>
        <time>2012-11-24T07:59:56Z</time>
      </trkpt>
      <trkpt lat="47.31908" lon="4.94666">
        <ele>466</ele>
        <time>2012-11-24T08:00:00Z</time>
      </trkpt>
      <trkpt lat="47.31905" lon="4.94658">
        <ele>467</ele>
        <time>2012-11-24T08:00:04Z</time>
      </trkpt>
      <trkpt lat="47.31905" lon="4.94651">
        <ele>468</ele>
        <time>2012-11-24T08:00:07Z</time>
      </trkpt>
      <trkpt lat="47.31903" lon="4.94644">
        <ele>467</ele>
        <time>2012-11-24T08:00:10Z</time>
      </trkpt>
      <trkpt lat="47.319" lon="4.94636">
        <ele>468</ele>
        <time>2012-11-24T08:00:14Z</time>
      </trkpt>
      <trkpt lat="47.31899" lon="4.94628">
        <ele>468</ele>
        <time>2012-11-24T08:00:17Z</time>
      </trkpt>
      <trkpt lat="47.31897" lon="4.94621">
        <ele>469</ele>
        <time>2012-11-24T08:00:21Z</time>
      </trkpt>
      <trkpt lat="47.31895" lon="4.94615">
        <ele>470</ele>
        <time>2012-11-24T08:00:23Z</time>
      </trkpt>
      <trkpt lat="47.31892" lon="4.94607">
        <ele>472</ele>
        <time>2012-11-24T08:00:26Z</time>
      </trkpt>
      <trkpt lat="47.31889" lon="4.94599">
        <ele>475</ele>
        <time>2012-11-24T08:00:30Z</time>
      </trkpt>
      <trkpt lat="47.31888" lon="4.94589">
        <ele>475</ele>
        <time>2012-11-24T08:00:32Z</time>
      </trkpt>
      <trkpt lat="47.31884" lon="4.94582">
        <ele>476</ele>
        <time>2012-11-24T08:00:34Z</time>
      </trkpt>
      <trkpt lat="47.31882" lon="4.94576">
        <ele>476</ele>
        <time>2012-11-24T08:00:37Z</time>
      </trkpt>
      <trkpt lat="47.31878" lon="4.9457">
        <ele>477</ele>
        <time>2012-11-24T08:00:41Z</time>
      </trkpt>
      <trkpt lat="47.31874" lon="4.94563">
        <ele>479</ele>
        <time>2012-11-24T08:00:45Z</time>
      </trkpt>
      <trkpt lat="47.3187" lon="4.94556">
        <ele>480</ele>
        <time>2012-11-24T08:00:47Z</time>
      </trkpt>
      <trkpt lat="47.31868" lon="4.94548">
        <ele>480</ele>
        <time>2012-11-24T08:00:49Z</time>
      </trkpt>
      <trkpt lat="47.31864" lon="4.94544">
        <ele>480</ele>
        <time>2012-11-24T08:00:53Z</time>
      </trkpt>
      <trkpt lat="47.3186" lon="4.94536">
        <ele>481</ele>
        <time>2012-11-24T08:00:56Z</time>
      </trkpt>
      <trkpt lat="47.31855" lon="4.94538">
        <ele>480</ele>
        <time>2012-11-24T08:01:00Z</time>
      </trkpt>
      <trkpt lat="47.31854" lon="4.94548">
        <ele>478</ele>
        <time>2012-11-24T08:01:01Z</time>
      </trkpt>
      <trkpt lat="47.31848" lon="4.94548">
        <ele>475</ele>
        <time>2012-11-24T08:01:05Z</time>
      </trkpt>
      <trkpt lat="47.31844" lon="4.94545">
        <ele>475</ele>
        <time>2012-11-24T08:01:09Z</time>
      </trkpt>
      <trkpt lat="47.31839" lon="4.94541">
        <ele>475</ele>
        <time>2012-11-24T08:01:12Z</time>
      </trkpt>
      <trkpt lat="47.31834" lon="4.94539">
        <ele>475</ele>
        <time>2012-11-24T08:01:16Z</time>
      </trkpt>
      <trkpt lat="47.31829" lon="4.94535">
        <ele>474</ele>
        <time>2012-11-24T08:01:20Z</time>
      </trkpt>
      <trkpt lat="47.31824" lon="4.94533">
        <ele>474</ele>
        <time>2012-11-24T08:01:23Z</time>
      </trkpt>
      <trkpt lat="47.31819" lon="4.9453">
        <ele>474</ele>
        <time>2012-11-24T08:01:26Z</time>
      </trkpt>
      <trkpt lat="47.31814" lon="4.9453">
        <ele>475</ele>
        <time>2012-11-24T08:01:30Z</time>
      </trkpt>
      <trkpt lat="47.3181" lon="4.94526">
        <ele>474</ele>
        <time>2012-11-24T08:01:33Z</time>
      </trkpt>
      <trkpt lat="47.31806" lon="4.94522">
        <ele>474</ele>
        <time>2012-11-24T08:01:36Z</time>
      </trkpt>
      <trkpt lat="47.31801" lon="4.94518">
        <ele>475</ele>
        <time>2012-11-24T08:01:40Z</time>
      </trkpt>
      <trkpt lat="47.31798" lon="4.94514">
        <ele>476</ele>
        <time>2012-11-24T08:01:43Z</time>
      </trkpt>
      <trkpt lat="47.31794" lon="4.94509">
        <ele>476</ele>
        <time>2012-11-24T08:01:46Z</time>
      </trkpt>
      <trkpt lat="47.3179" lon="4.94505">
        <ele>477</ele>
        <time>2012-11-24T08:01:49Z</time>
      </trkpt>
      <trkpt lat="47.31786" lon="4.94501">
        <ele>477</ele>
        <time>2012-11-24T08:01:53Z</time>
      </trkpt>
      <trkpt lat="47.31782" lon="4.94496">
        <ele>476</ele>
        <time>2012-11-24T08:01:55Z</time>
      </trkpt>
      <trkpt lat="47.31784" lon="4.9449">
        <ele>475</ele>
        <time>2012-11-24T08:02:09Z</time>
      </trkpt>
      <trkpt lat="47.31788" lon="4.94487">
        <ele>476</ele>
        <time>2012-11-24T08:02:15Z</time>
      </trkpt>
      <trkpt lat="47.31792" lon="4.94483">
        <ele>476</ele>
        <time>2012-11-24T08:02:18Z</time>
      </trkpt>
      <trkpt lat="47.31796" lon="4.94478">
        <ele>475</ele>
        <time>2012-11-24T08:02:22Z</time>
      </trkpt>
      <trkpt lat="47.31799" lon="4.94473">
        <ele>474</ele>
        <time>2012-11-24T08:02:25Z</time>
      </trkpt>
      <trkpt lat="47.31802" lon="4.94468">
        <ele>476</ele>
        <time>2012-11-24T08:02:31Z</time>
      </trkpt>
      <trkpt lat="47.31806" lon="4.94461">
        <ele>476</ele>
        <time>2012-11-24T08:02:36Z</time>
      </trkpt>
      <trkpt lat="47.3181" lon="4.94456">
        <ele>476</ele>
        <time>2012-11-24T08:02:39Z</time>
      </trkpt>
      <trkpt lat="47.31814" lon="4.94451">
        <ele>474</ele>
        <time>2012-11-24T08:02:42Z</time>
      </trkpt>
      <trkpt lat="47.31816" lon="4.94444">
        <ele>474</ele>
        <time>2012-11-24T08:02:45Z</time>
      </trkpt>
      <trkpt lat="47.3182" lon="4.94438">
        <ele>474</ele>
        <time>2012-11-24T08:02:49Z</time>
      </trkpt>
      <trkpt lat="47.31823" lon="4.94432">
        <ele>472</ele>
        <time>2012-11-24T08:02:52Z</time>
      </trkpt>
      <trkpt lat="47.31826" lon="4.94427">
        <ele>472</ele>
        <time>2012-11-24T08:02:56Z</time>
      </trkpt>
      <trkpt lat="47.3183" lon="4.9442">
        <ele>472</ele>
        <time>2012-11-24T08:03:00Z</time>
      </trkpt>
      <trkpt lat="47.31834" lon="4.94414">
        <ele>473</ele>
        <time>2012-11-24T08:03:04Z</time>
      </trkpt>
      <trkpt lat="47.31838" lon="4.94408">
        <ele>472</ele>
        <time>2012-11-24T08:03:08Z</time>
      </trkpt>
      <trkpt lat="47.31842" lon="4.94404">
        <ele>471</ele>
        <time>2012-11-24T08:03:11Z</time>
      </trkpt>
      <trkpt lat="47.31844" lon="4.94396">
        <ele>471</ele>
        <time>2012-11-24T08:03:14Z</time>
      </trkpt>
      <trkpt lat="47.31848" lon="4.94389">
        <ele>470</ele>
        <time>2012-11-24T08:03:18Z</time>
      </trkpt>
      <trkpt lat="47.31852" lon="4.94384">
        <ele>470</ele>
        <time>2012-11-24T08:03:21Z</time>
      </trkpt>
      <trkpt lat="47.31856" lon="4.94379">
        <ele>469</ele>
        <time>2012-11-24T08:03:24Z</time>
      </trkpt>
      <trkpt lat="47.3186" lon="4.94374">
        <ele>470</ele>
        <time>2012-11-24T08:03:28Z</time>
      </trkpt>
      <trkpt lat="47.31864" lon="4.94369">
        <ele>469</ele>
        <time>2012-11-24T08:03:31Z</time>
      </trkpt>
      <trkpt lat="47.31869" lon="4.94363">
        <ele>469</ele>
        <time>2012-11-24T08:03:35Z</time>
      </trkpt>
      <trkpt lat="47.31871" lon="4.94356">
        <ele>469</ele>
        <time>2012-11-24T08:03:38Z</time>
      </trkpt>
      <trkpt lat="47.31874" lon="4.9435">
        <ele>469</ele>
        <time>2012-11-24T08:03:41Z</time>
      </trkpt>
      <trkpt lat="47.31878" lon="4.94346">
        <ele>469</ele>
        <time>2012-11-24T08:03:44Z</time>
      </trkpt>
      <trkpt lat="47.31881" lon="4.9434">
        <ele>470</ele>
        <time>2012-11-24T08:03:47Z</time>
      </trkpt>
      <trkpt lat="47.31885" lon="4.94334">
        <ele>469</ele>
        <time>2012-11-24T08:03:51Z</time>
      </trkpt>
      <trkpt lat="47.31889" lon="4.94328">
        <ele>468</ele>
        <time>2012-11-24T08:03:54Z</time>
      </trkpt>
      <trkpt lat="47.31892" lon="4.94322">
        <ele>468</ele>
        <time>2012-11-24T08:03:58Z</time>
      </trkpt>
      <trkpt lat="47.31895" lon="4.94316">
        <ele>465</ele>
        <time>2012-11-24T08:04:01Z</time>
      </trkpt>
      <trkpt lat="47.31898" lon="4.94312">
        <ele>465</ele>
        <time>2012-11-24T08:04:05Z</time>
      </trkpt>
      <trkpt lat="47.31903" lon="4.94306">
        <ele>466</ele>
        <time>2012-11-24T08:04:10Z</time>
      </trkpt>
      <trkpt lat="47.31906" lon="4.94301">
        <ele>465</ele>
        <time>2012-11-24T08:04:14Z</time>
      </trkpt>
      <trkpt lat="47.31909" lon="4.94296">
        <ele>465</ele>
        <time>2012-11-24T08:04:18Z</time>
      </trkpt>
      <trkpt lat="47.31911" lon="4.9429">
        <ele>465</ele>
        <time>2012-11-24T08:04:21Z</time>
      </trkpt>
      <trkpt lat="47.31916" lon="4.94286">
        <ele>466</ele>
        <time>2012-11-24T08:04:24Z</time>
      </trkpt>
      <trkpt lat="47.31913" lon="4.94278">
        <ele>468</ele>
        <time>2012-11-24T08:04:33Z</time>
      </trkpt>
      <trkpt lat="47.3191" lon="4.94273">
        <ele>469</ele>
        <time>2012-11-24T08:04:38Z</time>
      </trkpt>
      <trkpt lat="47.31909" lon="4.94265">
        <ele>469</ele>
        <time>2012-11-24T08:04:41Z</time>
      </trkpt>
      <trkpt lat="47.31905" lon="4.9426">
        <ele>468</ele>
        <time>2012-11-24T08:04:43Z</time>
      </trkpt>
      <trkpt lat="47.31901" lon="4.94256">
        <ele>467</ele>
        <time>2012-11-24T08:04:46Z</time>
      </trkpt>
      <trkpt lat="47.31898" lon="4.9425">
        <ele>466</ele>
        <time>2012-11-24T08:04:49Z</time>
      </trkpt>
      <trkpt lat="47.31896" lon="4.94243">
        <ele>465</ele>
        <time>2012-11-24T08:04:53Z</time>
      </trkpt>
      <trkpt lat="47.31892" lon="4.94236">
        <ele>465</ele>
        <time>2012-11-24T08:04:58Z</time>
      </trkpt>
      <trkpt lat="47.31889" lon="4.94231">
        <ele>465</ele>
        <time>2012-11-24T08:05:02Z</time>
      </trkpt>
      <trkpt lat="47.31889" lon="4.94224">
        <ele>465</ele>
        <time>2012-11-24T08:05:07Z</time>
      </trkpt>
      <trkpt lat="47.31883" lon="4.94222">
        <ele>464</ele>
        <time>2012-11-24T08:05:09Z</time>
      </trkpt>
      <trkpt lat="47.31878" lon="4.94217">
        <ele>464</ele>
        <time>2012-11-24T08:05:12Z</time>
      </trkpt>
      <trkpt lat="47.31875" lon="4.9421">
        <ele>464</ele>
        <time>2012-11-24T08:05:16Z</time>
      </trkpt>
      <trkpt lat="47.3187" lon="4.94208">
        <ele>464</ele>
        <time>2012-11-24T08:05:19Z</time>
      </trkpt>
      <trkpt lat="47.31865" lon="4.94202">
        <ele>464</ele>
        <time>2012-11-24T08:05:23Z</time>
      </trkpt>
      <trkpt lat="47.31862" lon="4.94195">
        <ele>464</ele>
        <time>2012-11-24T08:05:28Z</time>
      </trkpt>
      <trkpt lat="47.31856" lon="4.9419">
        <ele>464</ele>
        <time>2012-11-24T08:05:31Z</time>
      </trkpt>
      <trkpt lat="47.31852" lon="4.94187">
        <ele>464</ele>
        <time>2012-11-24T08:05:33Z</time>
      </trkpt>
      <trkpt lat="47.31848" lon="4.94181">
        <ele>464</ele>
        <time>2012-11-24T08:05:36Z</time>
      </trkpt>
      <trkpt lat="47.31844" lon="4.94176">
        <ele>465</ele>
        <time>2012-11-24T08:05:40Z</time>
      </trkpt>
      <trkpt lat="47.31841" lon="4.94169">
        <ele>465</ele>
        <time>2012-11-24T08:05:45Z</time>
      </trkpt>
      <trkpt lat="47.3184" lon="4.94162">
        <ele>465</ele>
        <time>2012-11-24T08:05:50Z</time>
      </trkpt>
      <trkpt lat="47.31836" lon="4.94155">
        <ele>465</ele>
        <time>2012-11-24T08:05:56Z</time>
      </trkpt>
      <trkpt lat="47.31831" lon="4.94152">
        <ele>465</ele>
        <time>2012-11-24T08:05:58Z</time>
      </trkpt>
      <trkpt lat="47.31825" lon="4.94149">
        <ele>467</ele>
        <time>2012-11-24T08:06:02Z</time>
      </trkpt>
      <trkpt lat="47.31818" lon="4.94146">
        <ele>469</ele>
        <time>2012-11-24T08:06:06Z</time>
      </trkpt>
      <trkpt lat="47.31813" lon="4.94144">
        <ele>467</ele>
        <time>2012-11-24T08:06:09Z</time>
      </trkpt>
      <trkpt lat="47.31808" lon="4.94141">
        <ele>465</ele>
        <time>2012-11-24T08:06:12Z</time>
      </trkpt>
      <trkpt lat="47.31803" lon="4.94137">
        <ele>466</ele>
        <time>2012-11-24T08:06:16Z</time>
      </trkpt>
      <trkpt lat="47.31798" lon="4.94133">
        <ele>467</ele>
        <time>2012-11-24T08:06:20Z</time>
      </trkpt>
      <trkpt lat="47.31793" lon="4.94131">
        <ele>465</ele>
        <time>2012-11-24T08:06:23Z</time>
      </trkpt>
      <trkpt lat="47.31791" lon="4.94124">
        <ele>467</ele>
        <time>2012-11-24T08:06:26Z</time>
      </trkpt>
      <trkpt lat="47.31786" lon="4.9412">
        <ele>465</ele>
        <time>2012-11-24T08:06:30Z</time>
      </trkpt>
      <trkpt lat="47.31781" lon="4.94114">
        <ele>466</ele>
        <time>2012-11-24T08:06:34Z</time>
      </trkpt>
      <trkpt lat="47.31777" lon="4.9411">
        <ele>468</ele>
        <time>2012-11-24T08:06:38Z</time>
      </trkpt>
      <trkpt lat="47.31772" lon="4.94108">
        <ele>470</ele>
        <time>2012-11-24T08:06:42Z</time>
      </trkpt>
      <trkpt lat="47.31768" lon="4.94102">
        <ele>470</ele>
        <time>2012-11-24T08:06:46Z</time>
      </trkpt>
      <trkpt lat="47.31763" lon="4.94098">
        <ele>471</ele>
        <time>2012-11-24T08:06:50Z</time>
      </trkpt>
      <trkpt lat="47.31756" lon="4.94097">
        <ele>471</ele>
        <time>2012-11-24T08:06:54Z</time>
      </trkpt>
      <trkpt lat="47.31752" lon="4.94093">
        <ele>471</ele>
        <time>2012-11-24T08:06:57Z</time>
      </trkpt>
      <trkpt lat="47.31747" lon="4.94088">
        <ele>470</ele>
        <time>2012-11-24T08:07:01Z</time>
      </trkpt>
      <trkpt lat="47.31741" lon="4.94085">
        <ele>469</ele>
        <time>2012-11-24T08:07:05Z</time>
      </trkpt>
      <trkpt lat="47.31737" lon="4.9408">
        <ele>469</ele>
        <time>2012-11-24T08:07:08Z</time>
      </trkpt>
      <trkpt lat="47.31733" lon="4.94078">
        <ele>469</ele>
        <time>2012-11-24T08:07:11Z</time>
      </trkpt>
      <trkpt lat="47.31728" lon="4.94072">
        <ele>468</ele>
        <time>2012-11-24T08:07:15Z</time>
      </trkpt>
      <trkpt lat="47.31725" lon="4.94067">
        <ele>470</ele>
        <time>2012-11-24T08:07:20Z</time>
      </trkpt>
      <trkpt lat="47.3172" lon="4.94062">
        <ele>471</ele>
        <time>2012-11-24T08:07:26Z</time>
      </trkpt>
      <trkpt lat="47.31716" lon="4.94055">
        <ele>470</ele>
        <time>2012-11-24T08:07:49Z</time>
      </trkpt>
      <trkpt lat="47.31711" lon="4.94053">
        <ele>468</ele>
        <time>2012-11-24T08:07:58Z</time>
      </trkpt>
      <trkpt lat="47.31711" lon="4.94053">
        <ele>468</ele>
        <time>2012-11-24T08:07:58Z</time>
      </trkpt>
      <trkpt lat="47.31711" lon="4.94053">
        <ele>468</ele>
        <time>2012-11-24T08:08:01Z</time>
      </trkpt>
      <trkpt lat="47.31706" lon="4.94049">
        <ele>468</ele>
        <time>2012-11-24T08:08:15Z</time>
      </trkpt>
      <trkpt lat="47.31701" lon="4.94049">
        <ele>467</ele>
        <time>2012-11-24T08:08:24Z</time>
      </trkpt>
      <trkpt lat="47.31696" lon="4.94037">
        <ele>464</ele>
        <time>2012-11-24T08:08:42Z</time>
      </trkpt>
      <trkpt lat="47.31694" lon="4.94031">
        <ele>465</ele>
        <time>2012-11-24T08:08:46Z</time>
      </trkpt>
      <trkpt lat="47.31694" lon="4.94031">
        <ele>465</ele>
        <time>2012-11-24T08:08:46Z</time>
      </trkpt>
      <trkpt lat="47.31694" lon="4.94031">
        <ele>465</ele>
        <time>2012-11-24T08:08:47Z</time>
      </trkpt>
      <trkpt lat="47.31694" lon="4.94024">
        <ele>462</ele>
        <time>2012-11-24T08:08:53Z</time>
      </trkpt>
      <trkpt lat="47.31698" lon="4.94019">
        <ele>463</ele>
        <time>2012-11-24T08:09:00Z</time>
      </trkpt>
      <trkpt lat="47.31695" lon="4.94014">
        <ele>462</ele>
        <time>2012-11-24T08:09:06Z</time>
      </trkpt>
      <trkpt lat="47.31698" lon="4.94008">
        <ele>462</ele>
        <time>2012-11-24T08:09:10Z</time>
      </trkpt>
      <trkpt lat="47.31699" lon="4.94">
        <ele>462</ele>
        <time>2012-11-24T08:09:16Z</time>
      </trkpt>
      <trkpt lat="47.31703" lon="4.93996">
        <ele>462</ele>
        <time>2012-11-24T08:09:20Z</time>
      </trkpt>
      <trkpt lat="47.31707" lon="4.93989">
        <ele>461</ele>
        <time>2012-11-24T08:09:22Z</time>
      </trkpt>
      <trkpt lat="47.31704" lon="4.93981">
        <ele>462</ele>
        <time>2012-11-24T08:09:37Z</time>
      </trkpt>
      <trkpt lat="47.31704" lon="4.93974">
        <ele>464</ele>
        <time>2012-11-24T08:09:42Z</time>
      </trkpt>
      <trkpt lat="47.31699" lon="4.9397">
        <ele>464</ele>
        <time>2012-11-24T08:09:46Z</time>
      </trkpt>
      <trkpt lat="47.31691" lon="4.93966">
        <ele>467</ele>
        <time>2012-11-24T08:10:14Z</time>
      </trkpt>
      <trkpt lat="47.31683" lon="4.93967">
        <ele>469</ele>
        <time>2012-11-24T08:10:16Z</time>
      </trkpt>
      <trkpt lat="47.31679" lon="4.93965">
        <ele>469</ele>
        <time>2012-11-24T08:10:18Z</time>
      </trkpt>
      <trkpt lat="47.31673" lon="4.93966">
        <ele>470</ele>
        <time>2012-11-24T08:10:21Z</time>
      </trkpt>
      <trkpt lat="47.31668" lon="4.93965">
        <ele>468</ele>
        <time>2012-11-24T08:10:30Z</time>
      </trkpt>
      <trkpt lat="47.31665" lon="4.9397">
        <ele>470</ele>
        <time>2012-11-24T08:10:41Z</time>
      </trkpt>
      <trkpt lat="47.3166" lon="4.93974">
        <ele>471</ele>
        <time>2012-11-24T08:11:02Z</time>
      </trkpt>
      <trkpt lat="47.31655" lon="4.93974">
        <ele>471</ele>
        <time>2012-11-24T08:11:05Z</time>
      </trkpt>
      <trkpt lat="47.31648" lon="4.93975">
        <ele>473</ele>
        <time>2012-11-24T08:11:11Z</time>
      </trkpt>
      <trkpt lat="47.31643" lon="4.93975">
        <ele>473</ele>
        <time>2012-11-24T08:11:15Z</time>
      </trkpt>
      <trkpt lat="47.31637" lon="4.93975">
        <ele>476</ele>
        <time>2012-11-24T08:11:21Z</time>
      </trkpt>
      <trkpt lat="47.31632" lon="4.93975">
        <ele>477</ele>
        <time>2012-11-24T08:11:24Z</time>
      </trkpt>
      <trkpt lat="47.31632" lon="4.93975">
        <ele>477</ele>
        <time>2012-11-24T08:11:24Z</time>
      </trkpt>
      <trkpt lat="47.31632" lon="4.93975">
        <ele>477</ele>
        <time>2012-11-24T08:11:25Z</time>
      </trkpt>
      <trkpt lat="47.31627" lon="4.93974">
        <ele>477</ele>
        <time>2012-11-24T08:11:29Z</time>
      </trkpt>
      <trkpt lat="47.3162" lon="4.93975">
        <ele>477</ele>
        <time>2012-11-24T08:11:33Z</time>
      </trkpt>
      <trkpt lat="47.31615" lon="4.93975">
        <ele>479</ele>
        <time>2012-11-24T08:11:38Z</time>
      </trkpt>
      <trkpt lat="47.3161" lon="4.93968">
        <ele>477</ele>
        <time>2012-11-24T08:11:43Z</time>
      </trkpt>
      <trkpt lat="47.31606" lon="4.93966">
        <ele>474</ele>
        <time>2012-11-24T08:11:48Z</time>
      </trkpt>
      <trkpt lat="47.31602" lon="4.93971">
        <ele>473</ele>
        <time>2012-11-24T08:12:03Z</time>
      </trkpt>
      <trkpt lat="47.31601" lon="4.93981">
        <ele>473</ele>
        <time>2012-11-24T08:12:08Z</time>
      </trkpt>
      <trkpt lat="47.31603" lon="4.93987">
        <ele>472</ele>
        <time>2012-11-24T08:12:10Z</time>
      </trkpt>
      <trkpt lat="47.31603" lon="4.93994">
        <ele>472</ele>
        <time>2012-11-24T08:12:12Z</time>
      </trkpt>
      <trkpt lat="47.316" lon="4.93988">
        <ele>475</ele>
        <time>2012-11-24T08:12:32Z</time>
      </trkpt>
      <trkpt lat="47.31595" lon="4.93984">
        <ele>475</ele>
        <time>2012-11-24T08:12:35Z</time>
      </trkpt>
      <trkpt lat="47.31594" lon="4.93978">
        <ele>474</ele>
        <time>2012-11-24T08:17:51Z</time>
      </trkpt>
      <trkpt lat="47.31593" lon="4.93971">
        <ele>473</ele>
        <time>2012-11-24T08:18:04Z</time>
      </trkpt>
      <trkpt lat="47.31593" lon="4.93971">
        <ele>473</ele>
        <time>2012-11-24T08:18:04Z</time>
      </trkpt>
      <trkpt lat="47.31593" lon="4.93971">
        <ele>472</ele>
        <time>2012-11-24T08:18:05Z</time>
      </trkpt>
      <trkpt lat="47.31595" lon="4.93964">
        <ele>473</ele>
        <time>2012-11-24T08:18:16Z</time>
      </trkpt>
      <trkpt lat="47.31597" lon="4.93958">
        <ele>471</ele>
        <time>2012-11-24T08:18:21Z</time>
      </trkpt>
      <trkpt lat="47.31601" lon="4.93951">
        <ele>471</ele>
        <time>2012-11-24T08:18:26Z</time>
      </trkpt>
      <trkpt lat="47.31606" lon="4.93948">
        <ele>474</ele>
        <time>2012-11-24T08:18:39Z</time>
      </trkpt>
      <trkpt lat="47.31609" lon="4.93942">
        <ele>473</ele>
        <time>2012-11-24T08:18:47Z</time>
      </trkpt>
      <trkpt lat="47.31608" lon="4.93935">
        <ele>474</ele>
        <time>2012-11-24T08:18:57Z</time>
      </trkpt>
      <trkpt lat="47.31604" lon="4.93929">
        <ele>476</ele>
        <time>2012-11-24T08:19:02Z</time>
      </trkpt>
      <trkpt lat="47.31601" lon="4.93923">
        <ele>476</ele>
        <time>2012-11-24T08:19:05Z</time>
      </trkpt>
      <trkpt lat="47.31601" lon="4.93914">
        <ele>476</ele>
        <time>2012-11-24T08:19:09Z</time>
      </trkpt>
      <trkpt lat="47.316" lon="4.93906">
        <ele>477</ele>
        <time>2012-11-24T08:19:14Z</time>
      </trkpt>
      <trkpt lat="47.31593" lon="4.93903">
        <ele>476</ele>
        <time>2012-11-24T08:19:17Z</time>
      </trkpt>
      <trkpt lat="47.31592" lon="4.93896">
        <ele>476</ele>
        <time>2012-11-24T08:19:22Z</time>
      </trkpt>
      <trkpt lat="47.31588" lon="4.93892">
        <ele>479</ele>
        <time>2012-11-24T08:19:26Z</time>
      </trkpt>
      <trkpt lat="47.31586" lon="4.93885">
        <ele>481</ele>
        <time>2012-11-24T08:19:32Z</time>
      </trkpt>
      <trkpt lat="47.31582" lon="4.9388">
        <ele>481</ele>
        <time>2012-11-24T08:19:35Z</time>
      </trkpt>
      <trkpt lat="47.31577" lon="4.93875">
        <ele>481</ele>
        <time>2012-11-24T08:19:39Z</time>
      </trkpt>
      <trkpt lat="47.31576" lon="4.93868">
        <ele>480</ele>
        <time>2012-11-24T08:19:42Z</time>
      </trkpt>
      <trkpt lat="47.31576" lon="4.9386">
        <ele>481</ele>
        <time>2012-11-24T08:19:46Z</time>
      </trkpt>
      <trkpt lat="47.31576" lon="4.93853">
        <ele>481</ele>
        <time>2012-11-24T08:19:49Z</time>
      </trkpt>
      <trkpt lat="47.31573" lon="4.93846">
        <ele>481</ele>
        <time>2012-11-24T08:19:52Z</time>
      </trkpt>
      <trkpt lat="47.31568" lon="4.93841">
        <ele>482</ele>
        <time>2012-11-24T08:19:55Z</time>
      </trkpt>
      <trkpt lat="47.31563" lon="4.93835">
        <ele>481</ele>
        <time>2012-11-24T08:19:58Z</time>
      </trkpt>
      <trkpt lat="47.31558" lon="4.9383">
        <ele>480</ele>
        <time>2012-11-24T08:20:01Z</time>
      </trkpt>
      <trkpt lat="47.31554" lon="4.93822">
        <ele>479</ele>
        <time>2012-11-24T08:20:04Z</time>
      </trkpt>
      <trkpt lat="47.3155" lon="4.93817">
        <ele>479</ele>
        <time>2012-11-24T08:20:08Z</time>
      </trkpt>
      <trkpt lat="47.31545" lon="4.93812">
        <ele>478</ele>
        <time>2012-11-24T08:20:11Z</time>
      </trkpt>
      <trkpt lat="47.31541" lon="4.93807">
        <ele>477</ele>
        <time>2012-11-24T08:20:14Z</time>
      </trkpt>
      <trkpt lat="47.31536" lon="4.93802">
        <ele>478</ele>
        <time>2012-11-24T08:20:17Z</time>
      </trkpt>
      <trkpt lat="47.31532" lon="4.93796">
        <ele>479</ele>
        <time>2012-11-24T08:20:21Z</time>
      </trkpt>
      <trkpt lat="47.31528" lon="4.93792">
        <ele>478</ele>
        <time>2012-11-24T08:20:24Z</time>
      </trkpt>
      <trkpt lat="47.31525" lon="4.93786">
        <ele>478</ele>
        <time>2012-11-24T08:20:27Z</time>
      </trkpt>
      <trkpt lat="47.3152" lon="4.93782">
        <ele>479</ele>
        <time>2012-11-24T08:20:30Z</time>
      </trkpt>
      <trkpt lat="47.31516" lon="4.93778">
        <ele>479</ele>
        <time>2012-11-24T08:20:33Z</time>
      </trkpt>
      <trkpt lat="47.31513" lon="4.93772">
        <ele>480</ele>
        <time>2012-11-24T08:20:36Z</time>
      </trkpt>
      <trkpt lat="47.3151" lon="4.93765">
        <ele>475</ele>
        <time>2012-11-24T08:20:40Z</time>
      </trkpt>
      <trkpt lat="47.31507" lon="4.93758">
        <ele>473</ele>
        <time>2012-11-24T08:20:45Z</time>
      </trkpt>
      <trkpt lat="47.31502" lon="4.93752">
        <ele>472</ele>
        <time>2012-11-24T08:20:48Z</time>
      </trkpt>
      <trkpt lat="47.31499" lon="4.93746">
        <ele>472</ele>
        <time>2012-11-24T08:20:51Z</time>
      </trkpt>
      <trkpt lat="47.31495" lon="4.93742">
        <ele>474</ele>
        <time>2012-11-24T08:20:54Z</time>
      </trkpt>
      <trkpt lat="47.31493" lon="4.93734">
        <ele>474</ele>
        <time>2012-11-24T08:20:59Z</time>
      </trkpt>
      <trkpt lat="47.3149" lon="4.93727">
        <ele>475</ele>
        <time>2012-11-24T08:21:04Z</time>
      </trkpt>
      <trkpt lat="47.31488" lon="4.93721">
        <ele>475</ele>
        <time>2012-11-24T08:21:07Z</time>
      </trkpt>
      <trkpt lat="47.31483" lon="4.93714">
        <ele>474</ele>
        <time>2012-11-24T08:21:11Z</time>
      </trkpt>
      <trkpt lat="47.31479" lon="4.9371">
        <ele>473</ele>
        <time>2012-11-24T08:21:13Z</time>
      </trkpt>
      <trkpt lat="47.31479" lon="4.93703">
        <ele>471</ele>
        <time>2012-11-24T08:21:19Z</time>
      </trkpt>
      <trkpt lat="47.3148" lon="4.93693">
        <ele>471</ele>
        <time>2012-11-24T08:21:26Z</time>
      </trkpt>
      <trkpt lat="47.31485" lon="4.93688">
        <ele>471</ele>
        <time>2012-11-24T08:21:30Z</time>
      </trkpt>
      <trkpt lat="47.3149" lon="4.93684">
        <ele>471</ele>
        <time>2012-11-24T08:21:33Z</time>
      </trkpt>
      <trkpt lat="47.31493" lon="4.93678">
        <ele>474</ele>
        <time>2012-11-24T08:21:38Z</time>
      </trkpt>
      <trkpt lat="47.31497" lon="4.93672">
        <ele>473</ele>
        <time>2012-11-24T08:21:41Z</time>
      </trkpt>
      <trkpt lat="47.31501" lon="4.93669">
        <ele>473</ele>
        <time>2012-11-24T08:21:44Z</time>
      </trkpt>
      <trkpt lat="47.31505" lon="4.93664">
        <ele>472</ele>
        <time>2012-11-24T08:21:47Z</time>
      </trkpt>
      <trkpt lat="47.31509" lon="4.93658">
        <ele>471</ele>
        <time>2012-11-24T08:21:50Z</time>
      </trkpt>
      <trkpt lat="47.31513" lon="4.93654">
        <ele>473</ele>
        <time>2012-11-24T08:21:55Z</time>
      </trkpt>
      <trkpt lat="47.31514" lon="4.93647">
        <ele>473</ele>
        <time>2012-11-24T08:22:01Z</time>
      </trkpt>
      <trkpt lat="47.3151" lon="4.93642">
        <ele>475</ele>
        <time>2012-11-24T08:22:15Z</time>
      </trkpt>
      <trkpt lat="47.31508" lon="4.93635">
        <ele>475</ele>
        <time>2012-11-24T08:22:30Z</time>
      </trkpt>
      <trkpt lat="47.31505" lon="4.93629">
        <ele>476</ele>
        <time>2012-11-24T08:22:35Z</time>
      </trkpt>
      <trkpt lat="47.315" lon="4.93626">
        <ele>477</ele>
        <time>2012-11-24T08:22:38Z</time>
      </trkpt>
      <trkpt lat="47.31496" lon="4.93622">
        <ele>478</ele>
        <time>2012-11-24T08:22:41Z</time>
      </trkpt>
      <trkpt lat="47.31492" lon="4.93618">
        <ele>479</ele>
        <time>2012-11-24T08:22:44Z</time>
      </trkpt>
      <trkpt lat="47.31488" lon="4.93615">
        <ele>479</ele>
        <time>2012-11-24T08:22:48Z</time>
      </trkpt>
      <trkpt lat="47.31482" lon="4.9361">
        <ele>478</ele>
        <time>2012-11-24T08:22:59Z</time>
      </trkpt>
      <trkpt lat="47.31477" lon="4.93608">
        <ele>478</ele>
        <time>2012-11-24T08:23:08Z</time>
      </trkpt>
      <trkpt lat="47.31472" lon="4.93604">
        <ele>478</ele>
        <time>2012-11-24T08:23:11Z</time>
      </trkpt>
      <trkpt lat="47.31471" lon="4.93597">
        <ele>479</ele>
        <time>2012-11-24T08:23:17Z</time>
      </trkpt>
      <trkpt lat="47.31474" lon="4.93592">
        <ele>478</ele>
        <time>2012-11-24T08:23:20Z</time>
      </trkpt>
      <trkpt lat="47.31479" lon="4.93589">
        <ele>479</ele>
        <time>2012-11-24T08:23:25Z</time>
      </trkpt>
      <trkpt lat="47.31482" lon="4.93582">
        <ele>478</ele>
        <time>2012-11-24T08:23:32Z</time>
      </trkpt>
      <trkpt lat="47.31487" lon="4.9358">
        <ele>478</ele>
        <time>2012-11-24T08:23:37Z</time>
      </trkpt>
      <trkpt lat="47.3149" lon="4.93575">
        <ele>479</ele>
        <time>2012-11-24T08:23:41Z</time>
      </trkpt>
      <trkpt lat="47.31493" lon="4.9357">
        <ele>477</ele>
        <time>2012-11-24T08:23:46Z</time>
      </trkpt>
      <trkpt lat="47.31493" lon="4.9357">
        <ele>477</ele>
        <time>2012-11-24T08:23:46Z</time>
      </trkpt>
      <trkpt lat="47.31493" lon="4.9357">
        <ele>477</ele>
        <time>2012-11-24T08:23:47Z</time>
      </trkpt>
      <trkpt lat="47.31495" lon="4.93564">
        <ele>474</ele>
        <time>2012-11-24T08:24:05Z</time>
      </trkpt>
      <trkpt lat="47.31498" lon="4.93558">
        <ele>473</ele>
        <time>2012-11-24T08:24:08Z</time>
      </trkpt>
      <trkpt lat="47.315" lon="4.9355">
        <ele>470</ele>
        <time>2012-11-24T08:24:28Z</time>
      </trkpt>
      <trkpt lat="47.31504" lon="4.93545">
        <ele>468</ele>
        <time>2012-11-24T08:24:39Z</time>
      </trkpt>
      <trkpt lat="47.31508" lon="4.93542">
        <ele>467</ele>
        <time>2012-11-24T08:24:41Z</time>
      </trkpt>
      <trkpt lat="47.31513" lon="4.93539">
        <ele>465</ele>
        <time>2012-11-24T08:24:46Z</time>
      </trkpt>
      <trkpt lat="47.31513" lon="4.93539">
        <ele>465</ele>
        <time>2012-11-24T08:24:46Z</time>
      </trkpt>
      <trkpt lat="47.31513" lon="4.93539">
        <ele>465</ele>
        <time>2012-11-24T08:24:47Z</time>
      </trkpt>
      <trkpt lat="47.31515" lon="4.93532">
        <ele>465</ele>
        <time>2012-11-24T08:25:10Z</time>
      </trkpt>
      <trkpt lat="47.31516" lon="4.93525">
        <ele>464</ele>
        <time>2012-11-24T08:25:11Z</time>
      </trkpt>
      <trkpt lat="47.3152" lon="4.9352">
        <ele>462</ele>
        <time>2012-11-24T08:25:13Z</time>
      </trkpt>
      <trkpt lat="47.31522" lon="4.93513">
        <ele>462</ele>
        <time>2012-11-24T08:25:15Z</time>
      </trkpt>
      <trkpt lat="47.31524" lon="4.93507">
        <ele>461</ele>
        <time>2012-11-24T08:25:17Z</time>
      </trkpt>
      <trkpt lat="47.31525" lon="4.93501">
        <ele>460</ele>
        <time>2012-11-24T08:25:22Z</time>
      </trkpt>
      <trkpt lat="47.31527" lon="4.93494">
        <ele>459</ele>
        <time>2012-11-24T08:25:27Z</time>
      </trkpt>
      <trkpt lat="47.3153" lon="4.93488">
        <ele>456</ele>
        <time>2012-11-24T08:25:34Z</time>
      </trkpt>
      <trkpt lat="47.31527" lon="4.93482">
        <ele>457</ele>
        <time>2012-11-24T08:25:43Z</time>
      </trkpt>
      <trkpt lat="47.31523" lon="4.93476">
        <ele>456</ele>
        <time>2012-11-24T08:26:02Z</time>
      </trkpt>
      <trkpt lat="47.31525" lon="4.93468">
        <ele>456</ele>
        <time>2012-11-24T08:26:04Z</time>
      </trkpt>
      <trkpt lat="47.31521" lon="4.93463">
        <ele>455</ele>
        <time>2012-11-24T08:26:07Z</time>
      </trkpt>
      <trkpt lat="47.31519" lon="4.93457">
        <ele>453</ele>
        <time>2012-11-24T08:26:13Z</time>
      </trkpt>
      <trkpt lat="47.31519" lon="4.93457">
        <ele>453</ele>
        <time>2012-11-24T08:26:13Z</time>
      </trkpt>
      <trkpt lat="47.31519" lon="4.93457">
        <ele>453</ele>
        <time>2012-11-24T08:26:19Z</time>
      </trkpt>
      <trkpt lat="47.31515" lon="4.93447">
        <ele>453</ele>
        <time>2012-11-24T08:26:28Z</time>
      </trkpt>
      <trkpt lat="47.31512" lon="4.93441">
        <ele>453</ele>
        <time>2012-11-24T08:26:32Z</time>
      </trkpt>
      <trkpt lat="47.31513" lon="4.93431">
        <ele>451</ele>
        <time>2012-11-24T08:26:36Z</time>
      </trkpt>
      <trkpt lat="47.31511" lon="4.93424">
        <ele>452</ele>
        <time>2012-11-24T08:26:38Z</time>
      </trkpt>
      <trkpt lat="47.31504" lon="4.93419">
        <ele>451</ele>
        <time>2012-11-24T08:26:40Z</time>
      </trkpt>
      <trkpt lat="47.31498" lon="4.93412">
        <ele>450</ele>
        <time>2012-11-24T08:26:42Z</time>
      </trkpt>
      <trkpt lat="47.31495" lon="4.93405">
        <ele>451</ele>
        <time>2012-11-24T08:26:43Z</time>
      </trkpt>
      <trkpt lat="47.31492" lon="4.93399">
        <ele>450</ele>
        <time>2012-11-24T08:26:44Z</time>
      </trkpt>
      <trkpt lat="47.31488" lon="4.93393">
        <ele>450</ele>
        <time>2012-11-24T08:26:47Z</time>
      </trkpt>
      <trkpt lat="47.31484" lon="4.93387">
        <ele>449</ele>
        <time>2012-11-24T08:26:49Z</time>
      </trkpt>
      <trkpt lat="47.31482" lon="4.93379">
        <ele>447</ele>
        <time>2012-11-24T08:26:54Z</time>
      </trkpt>
      <trkpt lat="47.31474" lon="4.93371">
        <ele>443</ele>
        <time>2012-11-24T08:26:56Z</time>
      </trkpt>
      <trkpt lat="47.31476" lon="4.93364">
        <ele>441</ele>
        <time>2012-11-24T08:26:57Z</time>
      </trkpt>
      <trkpt lat="47.31478" lon="4.93358">
        <ele>434</ele>
        <time>2012-11-24T08:27:08Z</time>
      </trkpt>
      <trkpt lat="47.31478" lon="4.93358">
        <ele>434</ele>
        <time>2012-11-24T08:27:08Z</time>
      </trkpt>
      <trkpt lat="47.31478" lon="4.93358">
        <ele>434</ele>
        <time>2012-11-24T08:27:48Z</time>
      </trkpt>
      <trkpt lat="47.31477" lon="4.93351">
        <ele>431</ele>
        <time>2012-11-24T08:27:56Z</time>
      </trkpt>
      <trkpt lat="47.31469" lon="4.93346">
        <ele>430</ele>
        <time>2012-11-24T08:29:14Z</time>
      </trkpt>
      <trkpt lat="47.31463" lon="4.93342">
        <ele>430</ele>
        <time>2012-11-24T08:29:15Z</time>
      </trkpt>
      <trkpt lat="47.31455" lon="4.93337">
        <ele>432</ele>
        <time>2012-11-24T08:29:16Z</time>
      </trkpt>
      <trkpt lat="47.31451" lon="4.93333">
        <ele>432</ele>
        <time>2012-11-24T08:29:17Z</time>
      </trkpt>
      <trkpt lat="47.31448" lon="4.93319">
        <ele>431</ele>
        <time>2012-11-24T08:29:18Z</time>
      </trkpt>
      <trkpt lat="47.31442" lon="4.93314">
        <ele>432</ele>
        <time>2012-11-24T08:29:20Z</time>
      </trkpt>
      <trkpt lat="47.31438" lon="4.93311">
        <ele>433</ele>
        <time>2012-11-24T08:29:27Z</time>
      </trkpt>
      <trkpt lat="47.31447" lon="4.93297">
        <ele>434</ele>
        <time>2012-11-24T08:29:54Z</time>
      </trkpt>
      <trkpt lat="47.31448" lon="4.9328">
        <ele>435</ele>
        <time>2012-11-24T08:29:56Z</time>
      </trkpt>
      <trkpt lat="47.31444" lon="4.93274">
        <ele>436</ele>
        <time>2012-11-24T08:29:57Z</time>
      </trkpt>
      <trkpt lat="47.31444" lon="4.93266">
        <ele>436</ele>
        <time>2012-11-24T08:29:59Z</time>
      </trkpt>
      <trkpt lat="47.3144" lon="4.93258">
        <ele>437</ele>
        <time>2012-11-24T08:30:01Z</time>
      </trkpt>
      <trkpt lat="47.31436" lon="4.9325">
        <ele>438</ele>
        <time>2012-11-24T08:30:06Z</time>
      </trkpt>
      <trkpt lat="47.3143" lon="4.93245">
        <ele>435</ele>
        <time>2012-11-24T08:30:22Z</time>
      </trkpt>
      <trkpt lat="47.31425" lon="4.93244">
        <ele>435</ele>
        <time>2012-11-24T08:30:23Z</time>
      </trkpt>
      <trkpt lat="47.31418" lon="4.9324">
        <ele>435</ele>
        <time>2012-11-24T08:30:28Z</time>
      </trkpt>
      <trkpt lat="47.31413" lon="4.9324">
        <ele>434</ele>
        <time>2012-11-24T08:30:31Z</time>
      </trkpt>
      <trkpt lat="47.31413" lon="4.9324">
        <ele>434</ele>
        <time>2012-11-24T08:30:31Z</time>
      </trkpt>
      <trkpt lat="47.31413" lon="4.9324">
        <ele>435</ele>
        <time>2012-11-24T08:30:32Z</time>
      </trkpt>
      <trkpt lat="47.31409" lon="4.9324">
        <ele>437</ele>
        <time>2012-11-24T08:30:39Z</time>
      </trkpt>
      <trkpt lat="47.31402" lon="4.9324">
        <ele>438</ele>
        <time>2012-11-24T08:30:46Z</time>
      </trkpt>
      <trkpt lat="47.31396" lon="4.93241">
        <ele>441</ele>
        <time>2012-11-24T08:30:48Z</time>
      </trkpt>
      <trkpt lat="47.31387" lon="4.93246">
        <ele>443</ele>
        <time>2012-11-24T08:30:52Z</time>
      </trkpt>
      <trkpt lat="47.31383" lon="4.93248">
        <ele>442</ele>
        <time>2012-11-24T08:30:59Z</time>
      </trkpt>
      <trkpt lat="47.31378" lon="4.93251">
        <ele>444</ele>
        <time>2012-11-24T08:31:01Z</time>
      </trkpt>
      <trkpt lat="47.31372" lon="4.93254">
        <ele>446</ele>
        <time>2012-11-24T08:31:05Z</time>
      </trkpt>
      <trkpt lat="47.31367" lon="4.93257">
        <ele>447</ele>
        <time>2012-11-24T08:31:12Z</time>
      </trkpt>
      <trkpt lat="47.31361" lon="4.93257">
        <ele>448</ele>
        <time>2012-11-24T08:31:19Z</time>
      </trkpt>
      <trkpt lat="47.31354" lon="4.93257">
        <ele>449</ele>
        <time>2012-11-24T08:31:23Z</time>
      </trkpt>
      <trkpt lat="47.31348" lon="4.93258">
        <ele>450</ele>
        <time>2012-11-24T08:31:26Z</time>
      </trkpt>
      <trkpt lat="47.31343" lon="4.93257">
        <ele>451</ele>
        <time>2012-11-24T08:31:27Z</time>
      </trkpt>
      <trkpt lat="47.3134" lon="4.93262">
        <ele>454</ele>
        <time>2012-11-24T08:31:34Z</time>
      </trkpt>
      <trkpt lat="47.31334" lon="4.93261">
        <ele>454</ele>
        <time>2012-11-24T08:31:40Z</time>
      </trkpt>
      <trkpt lat="47.31329" lon="4.93261">
        <ele>455</ele>
        <time>2012-11-24T08:31:45Z</time>
      </trkpt>
      <trkpt lat="47.31323" lon="4.93265">
        <ele>456</ele>
        <time>2012-11-24T08:31:57Z</time>
      </trkpt>
      <trkpt lat="47.31316" lon="4.93265">
        <ele>456</ele>
        <time>2012-11-24T08:32:00Z</time>
      </trkpt>
      <trkpt lat="47.31309" lon="4.93265">
        <ele>455</ele>
        <time>2012-11-24T08:32:02Z</time>
      </trkpt>
      <trkpt lat="47.31304" lon="4.93265">
        <ele>456</ele>
        <time>2012-11-24T08:32:04Z</time>
      </trkpt>
      <trkpt lat="47.31299" lon="4.93264">
        <ele>459</ele>
        <time>2012-11-24T08:32:07Z</time>
      </trkpt>
      <trkpt lat="47.31293" lon="4.93266">
        <ele>463</ele>
        <time>2012-11-24T08:32:10Z</time>
      </trkpt>
      <trkpt lat="47.31293" lon="4.93273">
        <ele>466</ele>
        <time>2012-11-24T08:32:14Z</time>
      </trkpt>
      <trkpt lat="47.31287" lon="4.93272">
        <ele>466</ele>
        <time>2012-11-24T08:32:17Z</time>
      </trkpt>
      <trkpt lat="47.31281" lon="4.9328">
        <ele>466</ele>
        <time>2012-11-24T08:32:43Z</time>
      </trkpt>
      <trkpt lat="47.31278" lon="4.93288">
        <ele>468</ele>
        <time>2012-11-24T08:32:45Z</time>
      </trkpt>
      <trkpt lat="47.31277" lon="4.93295">
        <ele>467</ele>
        <time>2012-11-24T08:32:47Z</time>
      </trkpt>
      <trkpt lat="47.31273" lon="4.93301">
        <ele>468</ele>
        <time>2012-11-24T08:32:51Z</time>
      </trkpt>
      <trkpt lat="47.31274" lon="4.93312">
        <ele>470</ele>
        <time>2012-11-24T08:32:57Z</time>
      </trkpt>
      <trkpt lat="47.31272" lon="4.93323">
        <ele>469</ele>
        <time>2012-11-24T08:32:59Z</time>
      </trkpt>
      <trkpt lat="47.31271" lon="4.9333">
        <ele>468</ele>
        <time>2012-11-24T08:33:02Z</time>
      </trkpt>
      <trkpt lat="47.31271" lon="4.93337">
        <ele>469</ele>
        <time>2012-11-24T08:33:05Z</time>
      </trkpt>
      <trkpt lat="47.31267" lon="4.93341">
        <ele>468</ele>
        <time>2012-11-24T08:33:11Z</time>
      </trkpt>
      <trkpt lat="47.31268" lon="4.93354">
        <ele>462</ele>
        <time>2012-11-24T08:33:31Z</time>
      </trkpt>
      <trkpt lat="47.31266" lon="4.93362">
        <ele>460</ele>
        <time>2012-11-24T08:33:33Z</time>
      </trkpt>
      <trkpt lat="47.31262" lon="4.93368">
        <ele>460</ele>
        <time>2012-11-24T08:33:37Z</time>
      </trkpt>
      <trkpt lat="47.31259" lon="4.93374">
        <ele>459</ele>
        <time>2012-11-24T08:33:41Z</time>
      </trkpt>
      <trkpt lat="47.31255" lon="4.93384">
        <ele>458</ele>
        <time>2012-11-24T08:34:01Z</time>
      </trkpt>
      <trkpt lat="47.31255" lon="4.93391">
        <ele>457</ele>
        <time>2012-11-24T08:34:05Z</time>
      </trkpt>
      <trkpt lat="47.31255" lon="4.93391">
        <ele>457</ele>
        <time>2012-11-24T08:34:05Z</time>
      </trkpt>
      <trkpt lat="47.31255" lon="4.93391">
        <ele>457</ele>
        <time>2012-11-24T08:34:06Z</time>
      </trkpt>
      <trkpt lat="47.3125" lon="4.93396">
        <ele>457</ele>
        <time>2012-11-24T08:34:09Z</time>
      </trkpt>
      <trkpt lat="47.31247" lon="4.93401">
        <ele>458</ele>
        <time>2012-11-24T08:34:16Z</time>
      </trkpt>
      <trkpt lat="47.31245" lon="4.93408">
        <ele>459</ele>
        <time>2012-11-24T08:34:20Z</time>
      </trkpt>
      <trkpt lat="47.31241" lon="4.93413">
        <ele>460</ele>
        <time>2012-11-24T08:34:25Z</time>
      </trkpt>
      <trkpt lat="47.31239" lon="4.93419">
        <ele>460</ele>
        <time>2012-11-24T08:35:16Z</time>
      </trkpt>
      <trkpt lat="47.31239" lon="4.93419">
        <ele>460</ele>
        <time>2012-11-24T08:35:16Z</time>
      </trkpt>
      <trkpt lat="47.31239" lon="4.93419">
        <ele>461</ele>
        <time>2012-11-24T08:35:17Z</time>
      </trkpt>
      <trkpt lat="47.31235" lon="4.93423">
        <ele>463</ele>
        <time>2012-11-24T08:38:03Z</time>
      </trkpt>
      <trkpt lat="47.3123" lon="4.93424">
        <ele>462</ele>
        <time>2012-11-24T08:38:06Z</time>
      </trkpt>
      <trkpt lat="47.3123" lon="4.93424">
        <ele>462</ele>
        <time>2012-11-24T08:38:06Z</time>
      </trkpt>
      <trkpt lat="47.3123" lon="4.93424">
        <ele>463</ele>
        <time>2012-11-24T08:38:07Z</time>
      </trkpt>
      <trkpt lat="47.31225" lon="4.93423">
        <ele>466</ele>
        <time>2012-11-24T08:39:39Z</time>
      </trkpt>
      <trkpt lat="47.31221" lon="4.93418">
        <ele>468</ele>
        <time>2012-11-24T08:39:43Z</time>
      </trkpt>
      <trkpt lat="47.31217" lon="4.93414">
        <ele>469</ele>
        <time>2012-11-24T08:39:47Z</time>
      </trkpt>
      <trkpt lat="47.31217" lon="4.93407">
        <ele>471</ele>
        <time>2012-11-24T08:39:52Z</time>
      </trkpt>
      <trkpt lat="47.31213" lon="4.93402">
        <ele>472</ele>
        <time>2012-11-24T08:39:55Z</time>
      </trkpt>
      <trkpt lat="47.31214" lon="4.93394">
        <ele>471</ele>
        <time>2012-11-24T08:39:59Z</time>
      </trkpt>
      <trkpt lat="47.31212" lon="4.93386">
        <ele>472</ele>
        <time>2012-11-24T08:40:03Z</time>
      </trkpt>
      <trkpt lat="47.3121" lon="4.93379">
        <ele>472</ele>
        <time>2012-11-24T08:40:06Z</time>
      </trkpt>
      <trkpt lat="47.31208" lon="4.93372">
        <ele>472</ele>
        <time>2012-11-24T08:40:10Z</time>
      </trkpt>
      <trkpt lat="47.31206" lon="4.93365">
        <ele>474</ele>
        <time>2012-11-24T08:40:16Z</time>
      </trkpt>
      <trkpt lat="47.31203" lon="4.9336">
        <ele>476</ele>
        <time>2012-11-24T08:40:19Z</time>
      </trkpt>
      <trkpt lat="47.31199" lon="4.93353">
        <ele>479</ele>
        <time>2012-11-24T08:40:24Z</time>
      </trkpt>
      <trkpt lat="47.31196" lon="4.93347">
        <ele>480</ele>
        <time>2012-11-24T08:40:27Z</time>
      </trkpt>
      <trkpt lat="47.31194" lon="4.93341">
        <ele>479</ele>
        <time>2012-11-24T08:40:31Z</time>
      </trkpt>
      <trkpt lat="47.31192" lon="4.93334">
        <ele>478</ele>
        <time>2012-11-24T08:40:34Z</time>
      </trkpt>
      <trkpt lat="47.31189" lon="4.93328">
        <ele>479</ele>
        <time>2012-11-24T08:40:37Z</time>
      </trkpt>
      <trkpt lat="47.31189" lon="4.93322">
        <ele>479</ele>
        <time>2012-11-24T08:40:40Z</time>
      </trkpt>
      <trkpt lat="47.31187" lon="4.93315">
        <ele>480</ele>
        <time>2012-11-24T08:40:44Z</time>
      </trkpt>
      <trkpt lat="47.31184" lon="4.9331">
        <ele>480</ele>
        <time>2012-11-24T08:40:47Z</time>
      </trkpt>
      <trkpt lat="47.31182" lon="4.93301">
        <ele>480</ele>
        <time>2012-11-24T08:40:50Z</time>
      </trkpt>
      <trkpt lat="47.31177" lon="4.93295">
        <ele>481</ele>
        <time>2012-11-24T08:40:54Z</time>
      </trkpt>
      <trkpt lat="47.31176" lon="4.93288">
        <ele>480</ele>
        <time>2012-11-24T08:40:58Z</time>
      </trkpt>
      <trkpt lat="47.31174" lon="4.93281">
        <ele>480</ele>
        <time>2012-11-24T08:41:01Z</time>
      </trkpt>
      <trkpt lat="47.31174" lon="4.93273">
        <ele>477</ele>
        <time>2012-11-24T08:41:03Z</time>
      </trkpt>
      <trkpt lat="47.31177" lon="4.93268">
        <ele>478</ele>
        <time>2012-11-24T08:41:07Z</time>
      </trkpt>
      <trkpt lat="47.31181" lon="4.93263">
        <ele>478</ele>
        <time>2012-11-24T08:41:11Z</time>
      </trkpt>
      <trkpt lat="47.31185" lon="4.93259">
        <ele>479</ele>
        <time>2012-11-24T08:41:16Z</time>
      </trkpt>
      <trkpt lat="47.31189" lon="4.93255">
        <ele>479</ele>
        <time>2012-11-24T08:41:19Z</time>
      </trkpt>
      <trkpt lat="47.31192" lon="4.9325">
        <ele>480</ele>
        <time>2012-11-24T08:41:22Z</time>
      </trkpt>
      <trkpt lat="47.31198" lon="4.93244">
        <ele>479</ele>
        <time>2012-11-24T08:41:26Z</time>
      </trkpt>
      <trkpt lat="47.31202" lon="4.9324">
        <ele>477</ele>
        <time>2012-11-24T08:41:31Z</time>
      </trkpt>
      <trkpt lat="47.31206" lon="4.93237">
        <ele>477</ele>
        <time>2012-11-24T08:41:34Z</time>
      </trkpt>
      <trkpt lat="47.31211" lon="4.93235">
        <ele>477</ele>
        <time>2012-11-24T08:41:37Z</time>
      </trkpt>
      <trkpt lat="47.31216" lon="4.93231">
        <ele>478</ele>
        <time>2012-11-24T08:41:42Z</time>
      </trkpt>
      <trkpt lat="47.31221" lon="4.93229">
        <ele>477</ele>
        <time>2012-11-24T08:41:46Z</time>
      </trkpt>
      <trkpt lat="47.31227" lon="4.93226">
        <ele>475</ele>
        <time>2012-11-24T08:41:50Z</time>
      </trkpt>
      <trkpt lat="47.31233" lon="4.93224">
        <ele>475</ele>
        <time>2012-11-24T08:41:54Z</time>
      </trkpt>
      <trkpt lat="47.31237" lon="4.93222">
        <ele>474</ele>
        <time>2012-11-24T08:41:57Z</time>
      </trkpt>
      <trkpt lat="47.31242" lon="4.93221">
        <ele>473</ele>
        <time>2012-11-24T08:41:59Z</time>
      </trkpt>
      <trkpt lat="47.31248" lon="4.93222">
        <ele>472</ele>
        <time>2012-11-24T08:42:04Z</time>
      </trkpt>
      <trkpt lat="47.31252" lon="4.9322">
        <ele>472</ele>
        <time>2012-11-24T08:42:13Z</time>
      </trkpt>
      <trkpt lat="47.31252" lon="4.9322">
        <ele>472</ele>
        <time>2012-11-24T08:42:13Z</time>
      </trkpt>
      <trkpt lat="47.31252" lon="4.9322">
        <ele>472</ele>
        <time>2012-11-24T08:42:14Z</time>
      </trkpt>
      <trkpt lat="47.31258" lon="4.93216">
        <ele>470</ele>
        <time>2012-11-24T08:42:17Z</time>
      </trkpt>
      <trkpt lat="47.31262" lon="4.93213">
        <ele>469</ele>
        <time>2012-11-24T08:42:20Z</time>
      </trkpt>
      <trkpt lat="47.31268" lon="4.93212">
        <ele>467</ele>
        <time>2012-11-24T08:42:23Z</time>
      </trkpt>
      <trkpt lat="47.31273" lon="4.93211">
        <ele>467</ele>
        <time>2012-11-24T08:42:26Z</time>
      </trkpt>
      <trkpt lat="47.31278" lon="4.9321">
        <ele>466</ele>
        <time>2012-11-24T08:42:29Z</time>
      </trkpt>
      <trkpt lat="47.31282" lon="4.93204">
        <ele>463</ele>
        <time>2012-11-24T08:42:33Z</time>
      </trkpt>
      <trkpt lat="47.31287" lon="4.93201">
        <ele>462</ele>
        <time>2012-11-24T08:42:36Z</time>
      </trkpt>
      <trkpt lat="47.31293" lon="4.93199">
        <ele>461</ele>
        <time>2012-11-24T08:42:39Z</time>
      </trkpt>
      <trkpt lat="47.31298" lon="4.93194">
        <ele>461</ele>
        <time>2012-11-24T08:42:42Z</time>
      </trkpt>
      <trkpt lat="47.313" lon="4.93188">
        <ele>461</ele>
        <time>2012-11-24T08:42:45Z</time>
      </trkpt>
      <trkpt lat="47.31304" lon="4.93184">
        <ele>460</ele>
        <time>2012-11-24T08:42:47Z</time>
      </trkpt>
      <trkpt lat="47.3131" lon="4.93178">
        <ele>459</ele>
        <time>2012-11-24T08:42:50Z</time>
      </trkpt>
      <trkpt lat="47.31312" lon="4.93171">
        <ele>459</ele>
        <time>2012-11-24T08:42:53Z</time>
      </trkpt>
      <trkpt lat="47.3131" lon="4.93164">
        <ele>458</ele>
        <time>2012-11-24T08:42:56Z</time>
      </trkpt>
      <trkpt lat="47.3131" lon="4.93156">
        <ele>457</ele>
        <time>2012-11-24T08:43:02Z</time>
      </trkpt>
      <trkpt lat="47.31308" lon="4.9315">
        <ele>457</ele>
        <time>2012-11-24T08:43:05Z</time>
      </trkpt>
      <trkpt lat="47.31306" lon="4.93144">
        <ele>457</ele>
        <time>2012-11-24T08:43:08Z</time>
      </trkpt>
      <trkpt lat="47.31302" lon="4.93139">
        <ele>458</ele>
        <time>2012-11-24T08:43:10Z</time>
      </trkpt>
      <trkpt lat="47.31302" lon="4.9313">
        <ele>457</ele>
        <time>2012-11-24T08:43:13Z</time>
      </trkpt>
      <trkpt lat="47.31303" lon="4.93122">
        <ele>457</ele>
        <time>2012-11-24T08:43:16Z</time>
      </trkpt>
      <trkpt lat="47.31307" lon="4.93116">
        <ele>458</ele>
        <time>2012-11-24T08:43:20Z</time>
      </trkpt>
      <trkpt lat="47.31304" lon="4.93108">
        <ele>459</ele>
        <time>2012-11-24T08:43:26Z</time>
      </trkpt>
      <trkpt lat="47.31304" lon="4.93102">
        <ele>458</ele>
        <time>2012-11-24T08:43:31Z</time>
      </trkpt>
      <trkpt lat="47.31304" lon="4.93094">
        <ele>457</ele>
        <time>2012-11-24T08:43:36Z</time>
      </trkpt>
      <trkpt lat="47.31306" lon="4.93088">
        <ele>457</ele>
        <time>2012-11-24T08:43:39Z</time>
      </trkpt>
      <trkpt lat="47.31309" lon="4.93082">
        <ele>456</ele>
        <time>2012-11-24T08:43:42Z</time>
      </trkpt>
      <trkpt lat="47.31306" lon="4.93071">
        <ele>457</ele>
        <time>2012-11-24T08:43:47Z</time>
      </trkpt>
      <trkpt lat="47.31308" lon="4.93064">
        <ele>456</ele>
        <time>2012-11-24T08:43:50Z</time>
      </trkpt>
      <trkpt lat="47.31309" lon="4.93057">
        <ele>456</ele>
        <time>2012-11-24T08:43:53Z</time>
      </trkpt>
      <trkpt lat="47.31307" lon="4.9305">
        <ele>455</ele>
        <time>2012-11-24T08:43:56Z</time>
      </trkpt>
      <trkpt lat="47.31304" lon="4.93043">
        <ele>456</ele>
        <time>2012-11-24T08:44:00Z</time>
      </trkpt>
      <trkpt lat="47.31304" lon="4.93036">
        <ele>455</ele>
        <time>2012-11-24T08:44:04Z</time>
      </trkpt>
      <trkpt lat="47.31304" lon="4.93028">
        <ele>452</ele>
        <time>2012-11-24T08:44:08Z</time>
      </trkpt>
      <trkpt lat="47.31302" lon="4.9302">
        <ele>451</ele>
        <time>2012-11-24T08:44:13Z</time>
      </trkpt>
      <trkpt lat="47.31299" lon="4.93013">
        <ele>450</ele>
        <time>2012-11-24T08:44:24Z</time>
      </trkpt>
      <trkpt lat="47.31294" lon="4.93009">
        <ele>450</ele>
        <time>2012-11-24T08:44:26Z</time>
      </trkpt>
      <trkpt lat="47.31291" lon="4.93001">
        <ele>449</ele>
        <time>2012-11-24T08:44:30Z</time>
      </trkpt>
      <trkpt lat="47.31286" lon="4.92996">
        <ele>449</ele>
        <time>2012-11-24T08:44:35Z</time>
      </trkpt>
      <trkpt lat="47.31282" lon="4.92992">
        <ele>450</ele>
        <time>2012-11-24T08:44:38Z</time>
      </trkpt>
      <trkpt lat="47.31277" lon="4.9299">
        <ele>451</ele>
        <time>2012-11-24T08:44:43Z</time>
      </trkpt>
      <trkpt lat="47.31277" lon="4.9299">
        <ele>451</ele>
        <time>2012-11-24T08:44:43Z</time>
      </trkpt>
      <trkpt lat="47.31277" lon="4.9299">
        <ele>451</ele>
        <time>2012-11-24T08:44:45Z</time>
      </trkpt>
      <trkpt lat="47.31271" lon="4.92988">
        <ele>452</ele>
        <time>2012-11-24T08:44:55Z</time>
      </trkpt>
      <trkpt lat="47.31266" lon="4.92991">
        <ele>451</ele>
        <time>2012-11-24T08:44:58Z</time>
      </trkpt>
      <trkpt lat="47.31258" lon="4.9299">
        <ele>449</ele>
        <time>2012-11-24T08:45:02Z</time>
      </trkpt>
      <trkpt lat="47.31249" lon="4.92985">
        <ele>447</ele>
        <time>2012-11-24T08:45:04Z</time>
      </trkpt>
      <trkpt lat="47.31244" lon="4.92983">
        <ele>446</ele>
        <time>2012-11-24T08:45:12Z</time>
      </trkpt>
      <trkpt lat="47.31244" lon="4.92983">
        <ele>446</ele>
        <time>2012-11-24T08:45:12Z</time>
      </trkpt>
      <trkpt lat="47.31244" lon="4.92983">
        <ele>446</ele>
        <time>2012-11-24T08:45:13Z</time>
      </trkpt>
      <trkpt lat="47.31238" lon="4.92979">
        <ele>446</ele>
        <time>2012-11-24T08:45:16Z</time>
      </trkpt>
      <trkpt lat="47.31234" lon="4.92977">
        <ele>445</ele>
        <time>2012-11-24T08:45:18Z</time>
      </trkpt>
      <trkpt lat="47.31229" lon="4.92971">
        <ele>443</ele>
        <time>2012-11-24T08:45:21Z</time>
      </trkpt>
      <trkpt lat="47.31228" lon="4.92962">
        <ele>443</ele>
        <time>2012-11-24T08:45:27Z</time>
      </trkpt>
      <trkpt lat="47.31225" lon="4.92956">
        <ele>444</ele>
        <time>2012-11-24T08:45:30Z</time>
      </trkpt>
      <trkpt lat="47.31228" lon="4.9295">
        <ele>443</ele>
        <time>2012-11-24T08:45:34Z</time>
      </trkpt>
      <trkpt lat="47.31233" lon="4.92945">
        <ele>443</ele>
        <time>2012-11-24T08:45:41Z</time>
      </trkpt>
      <trkpt lat="47.31231" lon="4.92934">
        <ele>442</ele>
        <time>2012-11-24T08:45:46Z</time>
      </trkpt>
      <trkpt lat="47.31233" lon="4.92926">
        <ele>440</ele>
        <time>2012-11-24T08:45:49Z</time>
      </trkpt>
      <trkpt lat="47.31235" lon="4.92919">
        <ele>439</ele>
        <time>2012-11-24T08:45:51Z</time>
      </trkpt>
      <trkpt lat="47.31239" lon="4.92913">
        <ele>438</ele>
        <time>2012-11-24T08:45:53Z</time>
      </trkpt>
      <trkpt lat="47.31243" lon="4.92908">
        <ele>436</ele>
        <time>2012-11-24T08:45:55Z</time>
      </trkpt>
      <trkpt lat="47.31241" lon="4.92899">
        <ele>437</ele>
        <time>2012-11-24T08:45:58Z</time>
      </trkpt>
      <trkpt lat="47.31243" lon="4.92892">
        <ele>438</ele>
        <time>2012-11-24T08:46:00Z</time>
      </trkpt>
      <trkpt lat="47.31247" lon="4.92885">
        <ele>438</ele>
        <time>2012-11-24T08:46:03Z</time>
      </trkpt>
      <trkpt lat="47.3125" lon="4.92879">
        <ele>438</ele>
        <time>2012-11-24T08:46:05Z</time>
      </trkpt>
      <trkpt lat="47.31255" lon="4.92871">
        <ele>436</ele>
        <time>2012-11-24T08:46:08Z</time>
      </trkpt>
      <trkpt lat="47.31256" lon="4.92863">
        <ele>434</ele>
        <time>2012-11-24T08:46:10Z</time>
      </trkpt>
      <trkpt lat="47.31263" lon="4.9286">
        <ele>434</ele>
        <time>2012-11-24T08:46:14Z</time>
      </trkpt>
      <trkpt lat="47.31265" lon="4.92853">
        <ele>433</ele>
        <time>2012-11-24T08:46:18Z</time>
      </trkpt>
      <trkpt lat="47.31264" lon="4.92845">
        <ele>432</ele>
        <time>2012-11-24T08:46:22Z</time>
      </trkpt>
      <trkpt lat="47.31266" lon="4.92837">
        <ele>431</ele>
        <time>2012-11-24T08:46:25Z</time>
      </trkpt>
      <trkpt lat="47.31269" lon="4.92831">
        <ele>429</ele>
        <time>2012-11-24T08:46:27Z</time>
      </trkpt>
      <trkpt lat="47.31276" lon="4.92826">
        <ele>429</ele>
        <time>2012-11-24T08:46:30Z</time>
      </trkpt>
      <trkpt lat="47.3128" lon="4.92822">
        <ele>428</ele>
        <time>2012-11-24T08:46:37Z</time>
      </trkpt>
      <trkpt lat="47.31283" lon="4.92816">
        <ele>427</ele>
        <time>2012-11-24T08:46:40Z</time>
      </trkpt>
      <trkpt lat="47.31289" lon="4.92815">
        <ele>426</ele>
        <time>2012-11-24T08:46:41Z</time>
      </trkpt>
      <trkpt lat="47.31293" lon="4.92809">
        <ele>427</ele>
        <time>2012-11-24T08:46:43Z</time>
      </trkpt>
      <trkpt lat="47.313" lon="4.92809">
        <ele>427</ele>
        <time>2012-11-24T08:46:44Z</time>
      </trkpt>
      <trkpt lat="47.31306" lon="4.92806">
        <ele>425</ele>
        <time>2012-11-24T08:46:46Z</time>
      </trkpt>
      <trkpt lat="47.31311" lon="4.92802">
        <ele>424</ele>
        <time>2012-11-24T08:46:49Z</time>
      </trkpt>
      <trkpt lat="47.31316" lon="4.92797">
        <ele>425</ele>
        <time>2012-11-24T08:46:53Z</time>
      </trkpt>
      <trkpt lat="47.31321" lon="4.92795">
        <ele>424</ele>
        <time>2012-11-24T08:46:55Z</time>
      </trkpt>
      <trkpt lat="47.31326" lon="4.92794">
        <ele>423</ele>
        <time>2012-11-24T08:46:56Z</time>
      </trkpt>
      <trkpt lat="47.3133" lon="4.92787">
        <ele>422</ele>
        <time>2012-11-24T08:46:59Z</time>
      </trkpt>
      <trkpt lat="47.31332" lon="4.92781">
        <ele>421</ele>
        <time>2012-11-24T08:47:04Z</time>
      </trkpt>
      <trkpt lat="47.31338" lon="4.92779">
        <ele>421</ele>
        <time>2012-11-24T08:47:08Z</time>
      </trkpt>
      <trkpt lat="47.31344" lon="4.92778">
        <ele>421</ele>
        <time>2012-11-24T08:47:10Z</time>
      </trkpt>
      <trkpt lat="47.31346" lon="4.92772">
        <ele>420</ele>
        <time>2012-11-24T08:47:13Z</time>
      </trkpt>
      <trkpt lat="47.31352" lon="4.9277">
        <ele>419</ele>
        <time>2012-11-24T08:47:15Z</time>
      </trkpt>
      <trkpt lat="47.31357" lon="4.92767">
        <ele>419</ele>
        <time>2012-11-24T08:47:19Z</time>
      </trkpt>
      <trkpt lat="47.31363" lon="4.92768">
        <ele>418</ele>
        <time>2012-11-24T08:47:21Z</time>
      </trkpt>
      <trkpt lat="47.31368" lon="4.92764">
        <ele>418</ele>
        <time>2012-11-24T08:47:23Z</time>
      </trkpt>
      <trkpt lat="47.31371" lon="4.92757">
        <ele>416</ele>
        <time>2012-11-24T08:47:26Z</time>
      </trkpt>
      <trkpt lat="47.31379" lon="4.92756">
        <ele>415</ele>
        <time>2012-11-24T08:47:28Z</time>
      </trkpt>
      <trkpt lat="47.31384" lon="4.92755">
        <ele>414</ele>
        <time>2012-11-24T08:47:30Z</time>
      </trkpt>
      <trkpt lat="47.31391" lon="4.92754">
        <ele>414</ele>
        <time>2012-11-24T08:47:34Z</time>
      </trkpt>
      <trkpt lat="47.31396" lon="4.92753">
        <ele>413</ele>
        <time>2012-11-24T08:47:36Z</time>
      </trkpt>
      <trkpt lat="47.31402" lon="4.92754">
        <ele>412</ele>
        <time>2012-11-24T08:47:41Z</time>
      </trkpt>
      <trkpt lat="47.31408" lon="4.92751">
        <ele>411</ele>
        <time>2012-11-24T08:47:44Z</time>
      </trkpt>
      <trkpt lat="47.31414" lon="4.9275">
        <ele>411</ele>
        <time>2012-11-24T08:47:46Z</time>
      </trkpt>
      <trkpt lat="47.31421" lon="4.92749">
        <ele>410</ele>
        <time>2012-11-24T08:47:49Z</time>
      </trkpt>
      <trkpt lat="47.31425" lon="4.92744">
        <ele>410</ele>
        <time>2012-11-24T08:47:52Z</time>
      </trkpt>
      <trkpt lat="47.31431" lon="4.92744">
        <ele>409</ele>
        <time>2012-11-24T08:47:54Z</time>
      </trkpt>
      <trkpt lat="47.31438" lon="4.92741">
        <ele>409</ele>
        <time>2012-11-24T08:47:56Z</time>
      </trkpt>
      <trkpt lat="47.31445" lon="4.92739">
        <ele>408</ele>
        <time>2012-11-24T08:47:59Z</time>
      </trkpt>
      <trkpt lat="47.3145" lon="4.92736">
        <ele>406</ele>
        <time>2012-11-24T08:48:03Z</time>
      </trkpt>
      <trkpt lat="47.31456" lon="4.92733">
        <ele>405</ele>
        <time>2012-11-24T08:48:06Z</time>
      </trkpt>
      <trkpt lat="47.31461" lon="4.92729">
        <ele>403</ele>
        <time>2012-11-24T08:48:10Z</time>
      </trkpt>
      <trkpt lat="47.31466" lon="4.92728">
        <ele>403</ele>
        <time>2012-11-24T08:48:12Z</time>
      </trkpt>
      <trkpt lat="47.31469" lon="4.92723">
        <ele>401</ele>
        <time>2012-11-24T08:48:15Z</time>
      </trkpt>
      <trkpt lat="47.31474" lon="4.92721">
        <ele>400</ele>
        <time>2012-11-24T08:48:17Z</time>
      </trkpt>
      <trkpt lat="47.31478" lon="4.9272">
        <ele>400</ele>
        <time>2012-11-24T08:48:18Z</time>
      </trkpt>
      <trkpt lat="47.31486" lon="4.92718">
        <ele>399</ele>
        <time>2012-11-24T08:48:20Z</time>
      </trkpt>
      <trkpt lat="47.31493" lon="4.92715">
        <ele>397</ele>
        <time>2012-11-24T08:48:23Z</time>
      </trkpt>
      <trkpt lat="47.31498" lon="4.92714">
        <ele>395</ele>
        <time>2012-11-24T08:48:25Z</time>
      </trkpt>
      <trkpt lat="47.31504" lon="4.92712">
        <ele>395</ele>
        <time>2012-11-24T08:48:27Z</time>
      </trkpt>
      <trkpt lat="47.31509" lon="4.92712">
        <ele>394</ele>
        <time>2012-11-24T08:48:29Z</time>
      </trkpt>
      <trkpt lat="47.31518" lon="4.92712">
        <ele>392</ele>
        <time>2012-11-24T08:48:31Z</time>
      </trkpt>
      <trkpt lat="47.31524" lon="4.92709">
        <ele>391</ele>
        <time>2012-11-24T08:48:37Z</time>
      </trkpt>
      <trkpt lat="47.31532" lon="4.92706">
        <ele>388</ele>
        <time>2012-11-24T08:48:42Z</time>
      </trkpt>
      <trkpt lat="47.31538" lon="4.92702">
        <ele>385</ele>
        <time>2012-11-24T08:48:45Z</time>
      </trkpt>
      <trkpt lat="47.31545" lon="4.92697">
        <ele>383</ele>
        <time>2012-11-24T08:48:48Z</time>
      </trkpt>
      <trkpt lat="47.31551" lon="4.92692">
        <ele>382</ele>
        <time>2012-11-24T08:48:50Z</time>
      </trkpt>
      <trkpt lat="47.31557" lon="4.9269">
        <ele>382</ele>
        <time>2012-11-24T08:48:52Z</time>
      </trkpt>
      <trkpt lat="47.31563" lon="4.92688">
        <ele>382</ele>
        <time>2012-11-24T08:48:55Z</time>
      </trkpt>
      <trkpt lat="47.3157" lon="4.9269">
        <ele>383</ele>
        <time>2012-11-24T08:48:57Z</time>
      </trkpt>
      <trkpt lat="47.31575" lon="4.92688">
        <ele>383</ele>
        <time>2012-11-24T08:48:59Z</time>
      </trkpt>
      <trkpt lat="47.31581" lon="4.92688">
        <ele>383</ele>
        <time>2012-11-24T08:49:01Z</time>
      </trkpt>
      <trkpt lat="47.31589" lon="4.92692">
        <ele>382</ele>
        <time>2012-11-24T08:49:03Z</time>
      </trkpt>
      <trkpt lat="47.31595" lon="4.92691">
        <ele>384</ele>
        <time>2012-11-24T08:49:05Z</time>
      </trkpt>
      <trkpt lat="47.316" lon="4.92691">
        <ele>384</ele>
        <time>2012-11-24T08:49:08Z</time>
      </trkpt>
      <trkpt lat="47.31606" lon="4.92693">
        <ele>384</ele>
        <time>2012-11-24T08:49:11Z</time>
      </trkpt>
      <trkpt lat="47.3161" lon="4.9269">
        <ele>384</ele>
        <time>2012-11-24T08:49:16Z</time>
      </trkpt>
      <trkpt lat="47.31616" lon="4.92691">
        <ele>383</ele>
        <time>2012-11-24T08:49:19Z</time>
      </trkpt>
      <trkpt lat="47.31622" lon="4.92694">
        <ele>382</ele>
        <time>2012-11-24T08:49:20Z</time>
      </trkpt>
      <trkpt lat="47.31628" lon="4.92696">
        <ele>380</ele>
        <time>2012-11-24T08:49:22Z</time>
      </trkpt>
      <trkpt lat="47.31634" lon="4.92698">
        <ele>380</ele>
        <time>2012-11-24T08:49:24Z</time>
      </trkpt>
      <trkpt lat="47.3164" lon="4.92699">
        <ele>379</ele>
        <time>2012-11-24T08:49:26Z</time>
      </trkpt>
      <trkpt lat="47.31646" lon="4.92698">
        <ele>376</ele>
        <time>2012-11-24T08:49:30Z</time>
      </trkpt>
      <trkpt lat="47.31653" lon="4.927">
        <ele>373</ele>
        <time>2012-11-24T08:49:34Z</time>
      </trkpt>
      <trkpt lat="47.31658" lon="4.92701">
        <ele>371</ele>
        <time>2012-11-24T08:49:39Z</time>
      </trkpt>
      <trkpt lat="47.31662" lon="4.92705">
        <ele>369</ele>
        <time>2012-11-24T08:49:43Z</time>
      </trkpt>
      <trkpt lat="47.31667" lon="4.9271">
        <ele>368</ele>
        <time>2012-11-24T08:49:51Z</time>
      </trkpt>
      <trkpt lat="47.31673" lon="4.92714">
        <ele>367</ele>
        <time>2012-11-24T08:49:54Z</time>
      </trkpt>
      <trkpt lat="47.31678" lon="4.92715">
        <ele>367</ele>
        <time>2012-11-24T08:49:56Z</time>
      </trkpt>
      <trkpt lat="47.31685" lon="4.92718">
        <ele>366</ele>
        <time>2012-11-24T08:49:58Z</time>
      </trkpt>
      <trkpt lat="47.31692" lon="4.92721">
        <ele>365</ele>
        <time>2012-11-24T08:50:00Z</time>
      </trkpt>
      <trkpt lat="47.31698" lon="4.92723">
        <ele>365</ele>
        <time>2012-11-24T08:50:02Z</time>
      </trkpt>
      <trkpt lat="47.31703" lon="4.92721">
        <ele>364</ele>
        <time>2012-11-24T08:50:13Z</time>
      </trkpt>
      <trkpt lat="47.31703" lon="4.92721">
        <ele>364</ele>
        <time>2012-11-24T08:50:13Z</time>
      </trkpt>
      <trkpt lat="47.31703" lon="4.92721">
        <ele>364</ele>
        <time>2012-11-24T08:50:14Z</time>
      </trkpt>
      <trkpt lat="47.31707" lon="4.92723">
        <ele>363</ele>
        <time>2012-11-24T08:50:15Z</time>
      </trkpt>
      <trkpt lat="47.31712" lon="4.92723">
        <ele>361</ele>
        <time>2012-11-24T08:50:24Z</time>
      </trkpt>
      <trkpt lat="47.31718" lon="4.92726">
        <ele>361</ele>
        <time>2012-11-24T08:50:27Z</time>
      </trkpt>
      <trkpt lat="47.31724" lon="4.92728">
        <ele>359</ele>
        <time>2012-11-24T08:50:29Z</time>
      </trkpt>
      <trkpt lat="47.31732" lon="4.9273">
        <ele>355</ele>
        <time>2012-11-24T08:50:32Z</time>
      </trkpt>
      <trkpt lat="47.31736" lon="4.92728">
        <ele>354</ele>
        <time>2012-11-24T08:50:35Z</time>
      </trkpt>
      <trkpt lat="47.3174" lon="4.92722">
        <ele>352</ele>
        <time>2012-11-24T08:50:41Z</time>
      </trkpt>
      <trkpt lat="47.31748" lon="4.92723">
        <ele>350</ele>
        <time>2012-11-24T08:50:44Z</time>
      </trkpt>
      <trkpt lat="47.31754" lon="4.9272">
        <ele>348</ele>
        <time>2012-11-24T08:50:48Z</time>
      </trkpt>
      <trkpt lat="47.31761" lon="4.92721">
        <ele>348</ele>
        <time>2012-11-24T08:50:51Z</time>
      </trkpt>
      <trkpt lat="47.31766" lon="4.9272">
        <ele>348</ele>
        <time>2012-11-24T08:50:52Z</time>
      </trkpt>
      <trkpt lat="47.31771" lon="4.92715">
        <ele>349</ele>
        <time>2012-11-24T08:50:55Z</time>
      </trkpt>
      <trkpt lat="47.31776" lon="4.92714">
        <ele>349</ele>
        <time>2012-11-24T08:50:57Z</time>
      </trkpt>
      <trkpt lat="47.31781" lon="4.92713">
        <ele>349</ele>
        <time>2012-11-24T08:50:59Z</time>
      </trkpt>
      <trkpt lat="47.31786" lon="4.92709">
        <ele>347</ele>
        <time>2012-11-24T08:51:02Z</time>
      </trkpt>
      <trkpt lat="47.3179" lon="4.92704">
        <ele>346</ele>
        <time>2012-11-24T08:51:06Z</time>
      </trkpt>
      <trkpt lat="47.31794" lon="4.92701">
        <ele>346</ele>
        <time>2012-11-24T08:51:08Z</time>
      </trkpt>
      <trkpt lat="47.31798" lon="4.92697">
        <ele>346</ele>
        <time>2012-11-24T08:51:12Z</time>
      </trkpt>
      <trkpt lat="47.31803" lon="4.92692">
        <ele>345</ele>
        <time>2012-11-24T08:51:19Z</time>
      </trkpt>
      <trkpt lat="47.31809" lon="4.92687">
        <ele>343</ele>
        <time>2012-11-24T08:51:22Z</time>
      </trkpt>
      <trkpt lat="47.31813" lon="4.92685">
        <ele>343</ele>
        <time>2012-11-24T08:51:24Z</time>
      </trkpt>
      <trkpt lat="47.31818" lon="4.92683">
        <ele>343</ele>
        <time>2012-11-24T08:51:26Z</time>
      </trkpt>
      <trkpt lat="47.31825" lon="4.92679">
        <ele>342</ele>
        <time>2012-11-24T08:51:29Z</time>
      </trkpt>
      <trkpt lat="47.31832" lon="4.92673">
        <ele>338</ele>
        <time>2012-11-24T08:51:33Z</time>
      </trkpt>
      <trkpt lat="47.31834" lon="4.92667">
        <ele>333</ele>
        <time>2012-11-24T08:51:36Z</time>
      </trkpt>
      <trkpt lat="47.31839" lon="4.9267">
        <ele>333</ele>
        <time>2012-11-24T08:51:39Z</time>
      </trkpt>
      <trkpt lat="47.31848" lon="4.92675">
        <ele>332</ele>
        <time>2012-11-24T08:51:41Z</time>
      </trkpt>
      <trkpt lat="47.3185" lon="4.92683">
        <ele>332</ele>
        <time>2012-11-24T08:51:48Z</time>
      </trkpt>
      <trkpt lat="47.31846" lon="4.92686">
        <ele>333</ele>
        <time>2012-11-24T08:51:53Z</time>
      </trkpt>
      <trkpt lat="47.31843" lon="4.92691">
        <ele>333</ele>
        <time>2012-11-24T08:52:06Z</time>
      </trkpt>
      <trkpt lat="47.3184" lon="4.92697">
        <ele>336</ele>
        <time>2012-11-24T08:52:08Z</time>
      </trkpt>
      <trkpt lat="47.31839" lon="4.92704">
        <ele>334</ele>
        <time>2012-11-24T08:52:12Z</time>
      </trkpt>
      <trkpt lat="47.31831" lon="4.92701">
        <ele>335</ele>
        <time>2012-11-24T08:52:15Z</time>
      </trkpt>
      <trkpt lat="47.31824" lon="4.92699">
        <ele>335</ele>
        <time>2012-11-24T08:52:19Z</time>
      </trkpt>
      <trkpt lat="47.31818" lon="4.92699">
        <ele>335</ele>
        <time>2012-11-24T08:52:26Z</time>
      </trkpt>
      <trkpt lat="47.31814" lon="4.92701">
        <ele>335</ele>
        <time>2012-11-24T08:52:28Z</time>
      </trkpt>
      <trkpt lat="47.31808" lon="4.92705">
        <ele>334</ele>
        <time>2012-11-24T08:52:39Z</time>
      </trkpt>
      <trkpt lat="47.31804" lon="4.92703">
        <ele>334</ele>
        <time>2012-11-24T08:52:41Z</time>
      </trkpt>
      <trkpt lat="47.31799" lon="4.92696">
        <ele>336</ele>
        <time>2012-11-24T08:52:47Z</time>
      </trkpt>
      <trkpt lat="47.31798" lon="4.92689">
        <ele>336</ele>
        <time>2012-11-24T08:52:51Z</time>
      </trkpt>
      <trkpt lat="47.31798" lon="4.92689">
        <ele>336</ele>
        <time>2012-11-24T08:52:51Z</time>
      </trkpt>
      <trkpt lat="47.31798" lon="4.92689">
        <ele>336</ele>
        <time>2012-11-24T08:52:52Z</time>
      </trkpt>
      <trkpt lat="47.31803" lon="4.92689">
        <ele>335</ele>
        <time>2012-11-24T08:52:54Z</time>
      </trkpt>
      <trkpt lat="47.31808" lon="4.92687">
        <ele>336</ele>
        <time>2012-11-24T08:52:58Z</time>
      </trkpt>
      <trkpt lat="47.31814" lon="4.92685">
        <ele>336</ele>
        <time>2012-11-24T08:53:00Z</time>
      </trkpt>
      <trkpt lat="47.31818" lon="4.92683">
        <ele>336</ele>
        <time>2012-11-24T08:53:01Z</time>
      </trkpt>
      <trkpt lat="47.31826" lon="4.92682">
        <ele>335</ele>
        <time>2012-11-24T08:53:03Z</time>
      </trkpt>
      <trkpt lat="47.31832" lon="4.92682">
        <ele>334</ele>
        <time>2012-11-24T08:53:05Z</time>
      </trkpt>
      <trkpt lat="47.31837" lon="4.9268">
        <ele>333</ele>
        <time>2012-11-24T08:53:07Z</time>
      </trkpt>
      <trkpt lat="47.31837" lon="4.9268">
        <ele>333</ele>
        <time>2012-11-24T08:53:07Z</time>
      </trkpt>
      <trkpt lat="47.31837" lon="4.9268">
        <ele>333</ele>
        <time>2012-11-24T08:53:08Z</time>
      </trkpt>
      <trkpt lat="47.31841" lon="4.92675">
        <ele>332</ele>
        <time>2012-11-24T08:53:11Z</time>
      </trkpt>
      <trkpt lat="47.31846" lon="4.92671">
        <ele>330</ele>
        <time>2012-11-24T08:53:16Z</time>
      </trkpt>
      <trkpt lat="47.31851" lon="4.92665">
        <ele>326</ele>
        <time>2012-11-24T08:53:19Z</time>
      </trkpt>
      <trkpt lat="47.31854" lon="4.92655">
        <ele>323</ele>
        <time>2012-11-24T08:53:22Z</time>
      </trkpt>
      <trkpt lat="47.3185" lon="4.92654">
        <ele>322</ele>
        <time>2012-11-24T08:53:25Z</time>
      </trkpt>
      <trkpt lat="47.31855" lon="4.92652">
        <ele>321</ele>
        <time>2012-11-24T08:53:30Z</time>
      </trkpt>
      <trkpt lat="47.31856" lon="4.92658">
        <ele>319</ele>
        <time>2012-11-24T08:53:36Z</time>
      </trkpt>
      <trkpt lat="47.31856" lon="4.92658">
        <ele>319</ele>
        <time>2012-11-24T08:53:36Z</time>
      </trkpt>
    </trkseg>
  </trk>
</gpx>